Darstellungsparameter: Aktuell verwendete Einstellungen:
Skalierung der Graphiken ... ?
xyx+y,   Skalierungsfaktor:      Skalierung: Modus: x, Faktor: 1
Darstellungszeitraum ... ?
Vom - - bis: - -   Zeitraum: 06.06.2010 - 19.06.2010
Min/Max/Avg-Anzeige ... ?
Zeige MMA aktuell
Zeige MMA Monat
Zeige MMA alles
Zeige --A aktuell
Zeige --A Monat
Zeige --A alles
Keine MMA-Anzeige
MMA:
Average (ber die Originaldaten)
MMA-Basis: 06.06.2010 - 19.06.2010
Quicknavigation für Darstellung... ?
Tage:      1T, 2T, 3T, 5T -1T -2T -3T -5T +1T +2T +3T +5T
Wochen: 1W, 2W, 3W -1W -2W -3W +1W +2W +3W
Monate: 1M, 3M, 6M -1M -3M -6M +1M +3M +6M
Jahre:    1J, 3J, 5J, 10J -1J -3J -5J -10J +1J +3J +5J +10J
Nutze für die Darstellung ... ?
Originaldaten oder Mittelwerte auf ...
Stundenbasis Tagesbasis Wochenbasis
Monatsbasis Jahresbasis      Datenbasis: Original-Daten
Darstellen als:
Statistik (Auto) Statistik J:M      Darstellung:
Zur Graphik,    zurück zur Übersicht aller Sensoren.
 
Tabellarische Datenbersicht: ?
 
Sensor: Nr:Datum:Temp:Abs-Feuchte:Windchill:Wind:
Aussen-T/F 1 06-06-2010 00:03:03 21.1 C 8.48 g/m*3 21.1 C 0 km/h
2 06-06-2010 00:15:03 21 C 8.61 g/m*3 21 C 0 km/h
3 06-06-2010 00:27:03 20.8 C 8.69 g/m*3 20.8 C 0 km/h
4 06-06-2010 00:39:03 20.4 C 8.67 g/m*3 20.4 C 0 km/h
5 06-06-2010 00:51:03 20.2 C 8.74 g/m*3 20.2 C 0 km/h
6 06-06-2010 01:03:03 19.9 C 8.93 g/m*3 19.9 C 0 km/h
7 06-06-2010 01:15:03 19.5 C 8.89 g/m*3 19.5 C 0 km/h
8 06-06-2010 01:27:03 19.3 C 8.96 g/m*3 19.3 C 0 km/h
9 06-06-2010 01:39:03 19 C 8.8 g/m*3 19 C 0 km/h
10 06-06-2010 01:51:03 18.7 C 9.13 g/m*3 18.7 C 0 km/h
11 06-06-2010 02:03:03 18.5 C 9.33 g/m*3 18.5 C 0 km/h
12 06-06-2010 02:15:03 18.3 C 9.22 g/m*3 18.3 C 0 km/h
13 06-06-2010 02:27:03 18.1 C 9.27 g/m*3 18.1 C 0 km/h
14 06-06-2010 02:39:03 18.1 C 9.27 g/m*3 18.1 C 0 km/h
15 06-06-2010 02:51:03 17.9 C 9.47 g/m*3 17.9 C 0 km/h
16 06-06-2010 03:03:03 17.7 C 9.35 g/m*3 17.7 C 0 km/h
17 06-06-2010 03:15:03 17.4 C 9.19 g/m*3 17.4 C 0 km/h
18 06-06-2010 03:27:04 17.3 C 9.13 g/m*3 17.3 C 0 km/h
19 06-06-2010 03:39:04 17.3 C 9.28 g/m*3 17.3 C 0 km/h
20 06-06-2010 03:51:04 17.1 C 9.17 g/m*3 17.1 C 0 km/h
21 06-06-2010 04:03:04 16.9 C 9.21 g/m*3 16.9 C 0 km/h
22 06-06-2010 04:15:04 16.6 C 9.04 g/m*3 16.6 C 0 km/h
23 06-06-2010 04:27:04 16.4 C 9.07 g/m*3 16.4 C 0 km/h
24 06-06-2010 04:39:04 16.2 C 9.1 g/m*3 16.2 C 0 km/h
25 06-06-2010 04:51:04 15.9 C 9.21 g/m*3 15.9 C 0 km/h
Sensor: Nr:Datum:Temp:Abs-Feuchte:Windchill:Wind:
Aussen-T/F 26 06-06-2010 05:03:04 15.8 C 9.29 g/m*3 15.8 C 0 km/h
27 06-06-2010 05:15:04 15.6 C 9.18 g/m*3 15.6 C 0 km/h
28 06-06-2010 05:27:04 15.4 C 9.2 g/m*3 15.4 C 0 km/h
29 06-06-2010 05:39:04 15.3 C 9.14 g/m*3 15.3 C 0 km/h
30 06-06-2010 05:51:04 15.2 C 9.22 g/m*3 15.2 C 0 km/h
31 06-06-2010 06:03:04 15.3 C 9.4 g/m*3 15.3 C 0 km/h
32 06-06-2010 06:15:04 15.3 C 9.4 g/m*3 15.3 C 0 km/h
33 06-06-2010 06:27:04 15.4 C 9.46 g/m*3 15.4 C 0 km/h
34 06-06-2010 06:39:04 15.2 C 9.35 g/m*3 15.2 C 0 km/h
35 06-06-2010 06:51:04 15.4 C 9.46 g/m*3 15.4 C 0 km/h
36 06-06-2010 07:03:04 15.5 C 9.52 g/m*3 15.5 C 0 km/h
37 06-06-2010 07:15:04 15.8 C 9.56 g/m*3 15.8 C 0 km/h
38 06-06-2010 07:27:04 16.2 C 9.52 g/m*3 16.2 C 0 km/h
39 06-06-2010 07:39:04 16.5 C 9.55 g/m*3 16.5 C 0 km/h
40 06-06-2010 07:51:04 16.3 C 9.43 g/m*3 16.3 C 0 km/h
41 06-06-2010 08:03:02 16.5 C 9.55 g/m*3 16.5 C 0 km/h
42 06-06-2010 08:15:02 17.1 C 9.46 g/m*3 17.1 C 0 km/h
43 06-06-2010 08:27:02 17.3 C 9.43 g/m*3 17.3 C 0 km/h
44 06-06-2010 08:39:02 17.6 C 9 g/m*3 17.6 C 0 km/h
45 06-06-2010 08:51:01 18.1 C 9.12 g/m*3 18.1 C 0 km/h
46 06-06-2010 09:03:01 18.5 C 9.02 g/m*3 18.5 C 0 km/h
47 06-06-2010 09:15:01 18.9 C 9.07 g/m*3 18.9 C 0 km/h
48 06-06-2010 09:27:01 19.4 C 9.01 g/m*3 19.4 C 0 km/h
49 06-06-2010 09:39:01 20.1 C 8.87 g/m*3 20.1 C 0 km/h
50 06-06-2010 09:51:01 20.8 C 8.87 g/m*3 20.8 C 0 km/h
Sensor: Nr:Datum:Temp:Abs-Feuchte:Windchill:Wind:
Aussen-T/F 51 06-06-2010 10:03:01 21.3 C 8.95 g/m*3 21.3 C 0 km/h
52 06-06-2010 10:15:02 22.4 C 9.53 g/m*3 22.4 C 0 km/h
53 06-06-2010 10:27:02 23.1 C 9.3 g/m*3 23.1 C 0 km/h
54 06-06-2010 10:39:01 24.1 C 9.63 g/m*3 24.1 C 0 km/h
55 06-06-2010 10:51:03 24.6 C 9.45 g/m*3 24.6 C 0 km/h
56 06-06-2010 11:03:02 25.8 C 9.63 g/m*3 25.8 C 0 km/h
57 06-06-2010 11:15:02 26.5 C 9.51 g/m*3 26.5 C 0 km/h
58 06-06-2010 11:27:02 27.2 C 9.37 g/m*3 27.2 C 0 km/h
59 06-06-2010 11:39:02 27.6 C 9.58 g/m*3 27.6 C 0 km/h
60 06-06-2010 11:51:02 28.6 C 9.84 g/m*3 28.6 C 0 km/h
61 06-06-2010 12:03:01 29.1 C 9.53 g/m*3 29.1 C 0 km/h
62 06-06-2010 12:15:02 29.7 C 8.35 g/m*3 29.7 C 0 km/h
63 06-06-2010 12:27:02 29.6 C 8.01 g/m*3 29.6 C 0 km/h
64 06-06-2010 12:39:02 30 C 7.88 g/m*3 30 C 0 km/h
65 06-06-2010 12:51:01 29.4 C 9.69 g/m*3 29.4 C 0 km/h
66 06-06-2010 13:03:02 29.1 C 9.24 g/m*3 29.1 C 0 km/h
67 06-06-2010 13:15:01 29.4 C 9.39 g/m*3 29.4 C 0 km/h
68 06-06-2010 13:27:01 31.6 C 7.27 g/m*3 31.6 C 0 km/h
69 06-06-2010 13:39:02 30.9 C 6.68 g/m*3 30.9 C 0 km/h
70 06-06-2010 13:51:02 29.5 C 8.26 g/m*3 29.5 C 0 km/h
71 06-06-2010 14:03:02 28.9 C 9.71 g/m*3 28.9 C 0 km/h
72 06-06-2010 14:15:01 30 C 8.19 g/m*3 30 C 0 km/h
73 06-06-2010 14:27:01 30.3 C 7.7 g/m*3 30.3 C 0 km/h
74 06-06-2010 14:39:02 30.6 C 7.83 g/m*3 30.6 C 0 km/h
75 06-06-2010 14:51:02 31 C 8 g/m*3 31 C 0 km/h
Sensor: Nr:Datum:Temp:Abs-Feuchte:Windchill:Wind:
Aussen-T/F 76 06-06-2010 15:03:02 30.7 C 7.56 g/m*3 30.7 C 0 km/h
77 06-06-2010 15:15:02 31.3 C 7.48 g/m*3 31.3 C 0 km/h
78 06-06-2010 15:27:02 31.9 C 7.39 g/m*3 31.9 C 0 km/h
79 06-06-2010 15:39:02 31.3 C 7.15 g/m*3 31.3 C 0 km/h
80 06-06-2010 15:51:01 30.4 C 8.99 g/m*3 30.4 C 0 km/h
81 06-06-2010 16:03:02 29.3 C 9.34 g/m*3 29.3 C 0 km/h
82 06-06-2010 16:15:13 25.6 C 8.09 g/m*3 25.6 C 0 km/h
83 06-06-2010 16:27:13 24 C 9.14 g/m*3 24 C 0 km/h
84 06-06-2010 16:39:13 20.6 C 11.63 g/m*3 20.6 C 0 km/h
85 06-06-2010 16:51:13 19.3 C 12.44 g/m*3 19.3 C 0 km/h
86 06-06-2010 17:03:13 18.9 C 13.28 g/m*3 18.9 C 0 km/h
87 06-06-2010 17:15:13 18.5 C 13.13 g/m*3 18.5 C 0 km/h
88 06-06-2010 17:27:02 18.7 C 13.77 g/m*3 18.7 C 0 km/h
89 06-06-2010 17:39:01 18.8 C 14.01 g/m*3 18.8 C 0 km/h
90 06-06-2010 17:51:03 18.6 C 13.85 g/m*3 18.6 C 0 km/h
91 06-06-2010 18:03:02 18.9 C 14.26 g/m*3 18.9 C 0 km/h
92 06-06-2010 18:15:02 19.5 C 14.6 g/m*3 19.5 C 0 km/h
93 06-06-2010 18:27:02 19.3 C 14.26 g/m*3 19.3 C 0 km/h
94 06-06-2010 18:39:02 19.1 C 13.93 g/m*3 19.1 C 0 km/h
95 06-06-2010 18:51:02 19.2 C 14.02 g/m*3 19.2 C 0 km/h
96 06-06-2010 19:03:02 19.4 C 14.35 g/m*3 19.4 C 0 km/h
97 06-06-2010 19:15:02 19.4 C 14.35 g/m*3 19.4 C 0 km/h
98 06-06-2010 19:27:02 19.3 C 14.26 g/m*3 19.3 C 0 km/h
99 06-06-2010 19:39:01 19.1 C 14.1 g/m*3 19.1 C 0 km/h
100 06-06-2010 19:51:02 18.9 C 14.09 g/m*3 18.9 C 0 km/h
Sensor: Nr:Datum:Temp:Abs-Feuchte:Windchill:Wind:
Aussen-T/F 101 06-06-2010 20:03:01 19.2 C 14.35 g/m*3 19.2 C 0 km/h
102 06-06-2010 20:15:01 19.2 C 14.35 g/m*3 19.2 C 0 km/h
103 06-06-2010 20:27:01 19 C 14.01 g/m*3 19 C 0 km/h
104 06-06-2010 20:39:02 18.8 C 14.01 g/m*3 18.8 C 0 km/h
105 06-06-2010 20:51:02 18.8 C 14.01 g/m*3 18.8 C 0 km/h
106 06-06-2010 21:03:02 18.7 C 13.93 g/m*3 18.7 C 0 km/h
107 06-06-2010 21:15:02 18.7 C 13.93 g/m*3 18.7 C 0 km/h
108 06-06-2010 21:27:02 18.6 C 13.85 g/m*3 18.6 C 0 km/h
109 06-06-2010 21:39:02 18.5 C 13.77 g/m*3 18.5 C 0 km/h
110 06-06-2010 21:51:02 18.5 C 13.77 g/m*3 18.5 C 0 km/h
111 06-06-2010 22:03:02 18.4 C 13.68 g/m*3 18.4 C 0 km/h
112 06-06-2010 22:16:02 18.4 C 13.68 g/m*3 18.4 C 0 km/h
113 06-06-2010 22:28:02 18.3 C 13.6 g/m*3 18.3 C 0 km/h
114 06-06-2010 22:40:02 18.3 C 13.6 g/m*3 18.3 C 0 km/h
115 06-06-2010 22:52:02 18.3 C 13.76 g/m*3 18.3 C 0 km/h
116 06-06-2010 23:04:02 18.4 C 13.68 g/m*3 18.4 C 0 km/h
117 06-06-2010 23:16:02 18.5 C 13.77 g/m*3 18.5 C 0 km/h
118 06-06-2010 23:28:02 18.4 C 13.53 g/m*3 18.4 C 0 km/h
119 06-06-2010 23:40:02 18.1 C 13.29 g/m*3 18.1 C 0 km/h
120 06-06-2010 23:52:02 18.1 C 13.29 g/m*3 18.1 C 0 km/h
121 07-06-2010 00:04:02 17.7 C 13.28 g/m*3 17.7 C 0 km/h
122 07-06-2010 00:16:02 17.9 C 13.44 g/m*3 17.9 C 0 km/h
123 07-06-2010 00:28:02 18 C 13.52 g/m*3 18 C 0 km/h
124 07-06-2010 00:40:02 18 C 13.52 g/m*3 18 C 0 km/h
125 07-06-2010 00:52:02 18 C 13.52 g/m*3 18 C 0 km/h
Sensor: Nr:Datum:Temp:Abs-Feuchte:Windchill:Wind:
Aussen-T/F 126 07-06-2010 01:04:02 17.9 C 13.74 g/m*3 17.9 C 0 km/h
127 07-06-2010 01:16:02 17.9 C 13.74 g/m*3 17.9 C 0 km/h
128 07-06-2010 01:28:02 17.8 C 13.81 g/m*3 17.8 C 0 km/h
129 07-06-2010 01:40:02 17.7 C 13.73 g/m*3 17.7 C 0 km/h
130 07-06-2010 01:52:02 17.8 C 13.81 g/m*3 17.8 C 0 km/h
131 07-06-2010 02:04:03 17.9 C 13.89 g/m*3 17.9 C 0 km/h
132 07-06-2010 02:16:03 17.9 C 13.89 g/m*3 17.9 C 0 km/h
133 07-06-2010 02:28:03 17.6 C 13.05 g/m*3 17.6 C 0 km/h
134 07-06-2010 02:40:03 17 C 10.85 g/m*3 17 C 0 km/h
135 07-06-2010 02:52:03 16.4 C 10.89 g/m*3 16.4 C 0 km/h
136 07-06-2010 03:04:03 16.2 C 10.62 g/m*3 16.2 C 0 km/h
137 07-06-2010 03:16:03 15.8 C 10.23 g/m*3 15.8 C 0 km/h
138 07-06-2010 03:28:03 15.3 C 10.06 g/m*3 15.3 C 0 km/h
139 07-06-2010 03:40:03 15 C 10 g/m*3 15 C 0 km/h
140 07-06-2010 03:52:03 15 C 9.49 g/m*3 15 C 0 km/h
141 07-06-2010 04:04:03 14.8 C 9.12 g/m*3 14.8 C 0 km/h
142 07-06-2010 04:16:03 14.4 C 9.02 g/m*3 14.4 C 0 km/h
143 07-06-2010 04:28:03 13.9 C 9.11 g/m*3 13.9 C 0 km/h
144 07-06-2010 04:40:03 13.5 C 9.01 g/m*3 13.5 C 0 km/h
145 07-06-2010 04:52:03 13.4 C 9.18 g/m*3 13.4 C 0 km/h
146 07-06-2010 05:04:03 13.6 C 9.18 g/m*3 13.6 C 0 km/h
147 07-06-2010 05:16:03 13.6 C 9.06 g/m*3 13.6 C 0 km/h
148 07-06-2010 05:28:03 13.6 C 9.06 g/m*3 13.6 C 0 km/h
149 07-06-2010 05:40:03 13.7 C 9.24 g/m*3 13.7 C 0 km/h
150 07-06-2010 05:52:03 13.5 C 9.24 g/m*3 13.5 C 0 km/h
Sensor: Nr:Datum:Temp:Abs-Feuchte:Windchill:Wind:
Aussen-T/F 151 07-06-2010 06:04:04 13.7 C 9.47 g/m*3 13.7 C 0 km/h
152 07-06-2010 06:16:04 14.1 C 9.59 g/m*3 14.1 C 0 km/h
153 07-06-2010 06:28:04 14.5 C 9.33 g/m*3 14.5 C 0 km/h
154 07-06-2010 06:40:04 14.8 C 9.12 g/m*3 14.8 C 0 km/h
155 07-06-2010 06:52:04 14.9 C 9.3 g/m*3 14.9 C 0 km/h
156 07-06-2010 07:04:02 15.1 C 9.03 g/m*3 15.1 C 0 km/h
157 07-06-2010 07:16:02 15.3 C 9.14 g/m*3 15.3 C 0 km/h
158 07-06-2010 07:28:02 15 C 8.98 g/m*3 15 C 0 km/h
159 07-06-2010 07:40:18 14.9 C 9.3 g/m*3 14.9 C 0 km/h
160 07-06-2010 07:52:01 14.9 C 9.43 g/m*3 14.9 C 0 km/h
161 07-06-2010 08:04:02 15.2 C 9.35 g/m*3 15.2 C 0 km/h
162 07-06-2010 08:16:02 15.4 C 9.33 g/m*3 15.4 C 0 km/h
163 07-06-2010 08:28:02 15.6 C 9.31 g/m*3 15.6 C 0 km/h
164 07-06-2010 08:40:01 15.7 C 9.37 g/m*3 15.7 C 0 km/h
165 07-06-2010 08:52:03 15.8 C 9.29 g/m*3 15.8 C 0 km/h
166 07-06-2010 09:04:02 16.5 C 9.55 g/m*3 16.5 C 0 km/h
167 07-06-2010 09:16:02 17.2 C 9.23 g/m*3 17.2 C 0 km/h
168 07-06-2010 09:28:03 17.2 C 9.23 g/m*3 17.2 C 0 km/h
169 07-06-2010 09:40:02 17 C 8.97 g/m*3 17 C 0 km/h
170 07-06-2010 09:52:02 17.5 C 9.09 g/m*3 17.5 C 0 km/h
171 07-06-2010 10:04:01 17.6 C 9.15 g/m*3 17.6 C 0 km/h
172 07-06-2010 10:16:02 18.1 C 8.96 g/m*3 18.1 C 0 km/h
173 07-06-2010 10:28:02 18.3 C 8.76 g/m*3 18.3 C 0 km/h
174 07-06-2010 10:40:02 18.7 C 8.81 g/m*3 18.7 C 0 km/h
175 07-06-2010 10:52:01 18.9 C 9.07 g/m*3 18.9 C 0 km/h
Sensor: Nr:Datum:Temp:Abs-Feuchte:Windchill:Wind:
Aussen-T/F 176 07-06-2010 11:04:02 19.5 C 8.89 g/m*3 19.5 C 0 km/h
177 07-06-2010 11:16:01 19.3 C 8.79 g/m*3 19.3 C 0 km/h
178 07-06-2010 11:28:01 19.1 C 8.69 g/m*3 19.1 C 0 km/h
179 07-06-2010 11:40:01 19.5 C 8.73 g/m*3 19.5 C 0 km/h
180 07-06-2010 11:52:02 19.9 C 8.42 g/m*3 19.9 C 0 km/h
181 07-06-2010 12:04:02 20.7 C 8.1 g/m*3 20.7 C 0 km/h
182 07-06-2010 12:16:01 21.6 C 7.97 g/m*3 21.6 C 0 km/h
183 07-06-2010 12:28:01 21.9 C 7.91 g/m*3 21.9 C 0 km/h
184 07-06-2010 12:40:02 22.4 C 7.94 g/m*3 22.4 C 0 km/h
185 07-06-2010 12:52:02 23.1 C 7.65 g/m*3 23.1 C 0 km/h
186 07-06-2010 13:04:02 23.1 C 7.23 g/m*3 23.1 C 0 km/h
187 07-06-2010 13:16:01 24.3 C 7.3 g/m*3 24.3 C 0 km/h
188 07-06-2010 13:28:01 24.3 C 7.75 g/m*3 24.3 C 0 km/h
189 07-06-2010 13:40:02 23.4 C 6.73 g/m*3 23.4 C 0 km/h
190 07-06-2010 13:52:01 23.8 C 7.31 g/m*3 23.8 C 0 km/h
191 07-06-2010 14:04:02 23.9 C 6.92 g/m*3 23.9 C 0 km/h
192 07-06-2010 14:16:02 23.7 C 7.27 g/m*3 23.7 C 0 km/h
193 07-06-2010 14:28:02 24.1 C 6.78 g/m*3 24.1 C 0 km/h
194 07-06-2010 14:40:02 24.1 C 7 g/m*3 24.1 C 0 km/h
195 07-06-2010 14:52:02 24.2 C 6.82 g/m*3 24.2 C 0 km/h
196 07-06-2010 15:04:01 24.4 C 6.68 g/m*3 24.4 C 0 km/h
197 07-06-2010 15:16:02 24 C 6.74 g/m*3 24 C 0 km/h
198 07-06-2010 15:28:02 24.7 C 6.79 g/m*3 24.7 C 0 km/h
199 07-06-2010 15:40:01 24.7 C 6.34 g/m*3 24.7 C 0 km/h
200 07-06-2010 15:52:02 23.7 C 6.63 g/m*3 23.7 C 0 km/h
Sensor: Nr:Datum:Temp:Abs-Feuchte:Windchill:Wind:
Aussen-T/F 201 07-06-2010 16:04:01 24.8 C 6.6 g/m*3 24.8 C 0 km/h
202 07-06-2010 16:16:01 25.3 C 6.55 g/m*3 25.3 C 0 km/h
203 07-06-2010 16:28:01 25.6 C 6.43 g/m*3 25.6 C 0 km/h
204 07-06-2010 16:40:02 25.1 C 6.02 g/m*3 25.1 C 0 km/h
205 07-06-2010 16:52:02 25.3 C 6.32 g/m*3 25.3 C 0 km/h
206 07-06-2010 17:04:01 24.5 C 6.04 g/m*3 24.5 C 0 km/h
207 07-06-2010 17:16:02 24.8 C 6.15 g/m*3 24.8 C 0 km/h
208 07-06-2010 17:28:02 24.3 C 5.97 g/m*3 24.3 C 0 km/h
209 07-06-2010 17:40:02 24.9 C 5.95 g/m*3 24.9 C 0 km/h
210 07-06-2010 17:52:02 24.8 C 5.69 g/m*3 24.8 C 0 km/h
211 07-06-2010 18:04:03 24.5 C 5.6 g/m*3 24.5 C 0 km/h
212 07-06-2010 18:16:02 26.2 C 5.42 g/m*3 26.2 C 0 km/h
213 07-06-2010 18:28:02 25.6 C 5 g/m*3 25.6 C 0 km/h
214 07-06-2010 18:40:02 26.9 C 5.37 g/m*3 26.9 C 0 km/h
215 07-06-2010 18:52:01 26.4 C 4.98 g/m*3 26.4 C 0 km/h
216 07-06-2010 19:04:02 26.6 C 5.29 g/m*3 26.6 C 0 km/h
217 07-06-2010 19:16:01 26 C 5.11 g/m*3 26 C 0 km/h
218 07-06-2010 19:28:01 25.5 C 5.21 g/m*3 25.5 C 0 km/h
219 07-06-2010 19:40:01 25.2 C 5.35 g/m*3 25.2 C 0 km/h
220 07-06-2010 19:52:01 23.9 C 5.41 g/m*3 23.9 C 0 km/h
221 07-06-2010 20:04:01 24.1 C 5.47 g/m*3 24.1 C 0 km/h
222 07-06-2010 20:16:02 24.1 C 5.69 g/m*3 24.1 C 0 km/h
223 07-06-2010 20:28:02 23.1 C 5.79 g/m*3 23.1 C 0 km/h
224 07-06-2010 20:40:01 22.3 C 6.12 g/m*3 22.3 C 0 km/h
225 07-06-2010 20:52:01 21.8 C 6.72 g/m*3 21.8 C 0 km/h
Sensor: Nr:Datum:Temp:Abs-Feuchte:Windchill:Wind:
Aussen-T/F 226 07-06-2010 21:04:01 21 C 6.41 g/m*3 21 C 0 km/h
227 07-06-2010 21:16:02 20.4 C 6.72 g/m*3 20.4 C 0 km/h
228 07-06-2010 21:28:02 19.9 C 6.87 g/m*3 19.9 C 0 km/h
229 07-06-2010 21:40:01 19.4 C 6.84 g/m*3 19.4 C 0 km/h
230 07-06-2010 21:52:03 19.5 C 7.05 g/m*3 19.5 C 0 km/h
231 07-06-2010 22:04:03 18.9 C 6.97 g/m*3 18.9 C 0 km/h
232 07-06-2010 22:16:02 18.8 C 7.25 g/m*3 18.8 C 0 km/h
233 07-06-2010 22:28:02 18.5 C 7.28 g/m*3 18.5 C 0 km/h
234 07-06-2010 22:40:03 18.3 C 7.35 g/m*3 18.3 C 0 km/h
235 07-06-2010 22:53:02 17.9 C 7.79 g/m*3 17.9 C 0 km/h
236 07-06-2010 23:05:02 17.9 C 7.94 g/m*3 17.9 C 0 km/h
237 07-06-2010 23:17:03 17.4 C 7.85 g/m*3 17.4 C 0 km/h
238 07-06-2010 23:29:03 17 C 7.81 g/m*3 17 C 0 km/h
239 07-06-2010 23:41:03 17 C 8.39 g/m*3 17 C 0 km/h
240 07-06-2010 23:53:03 17 C 8.39 g/m*3 17 C 0 km/h
241 08-06-2010 00:05:03 16.8 C 8.58 g/m*3 16.8 C 0 km/h
242 08-06-2010 00:17:03 16.4 C 8.37 g/m*3 16.4 C 0 km/h
243 08-06-2010 00:29:03 16.3 C 8.46 g/m*3 16.3 C 0 km/h
244 08-06-2010 00:41:03 16.2 C 8.55 g/m*3 16.2 C 0 km/h
245 08-06-2010 00:53:03 16 C 8.45 g/m*3 16 C 0 km/h
246 08-06-2010 01:05:03 15.8 C 8.62 g/m*3 15.8 C 0 km/h
247 08-06-2010 01:17:03 15.6 C 8.51 g/m*3 15.6 C 0 km/h
248 08-06-2010 01:29:03 15 C 8.33 g/m*3 15 C 0 km/h
249 08-06-2010 01:41:03 14.9 C 8.54 g/m*3 14.9 C 0 km/h
250 08-06-2010 01:53:03 14.8 C 8.49 g/m*3 14.8 C 0 km/h
Sensor: Nr:Datum:Temp:Abs-Feuchte:Windchill:Wind:
Aussen-T/F 251 08-06-2010 02:05:03 14.7 C 8.44 g/m*3 14.7 C 0 km/h
252 08-06-2010 02:17:03 14.4 C 8.41 g/m*3 14.4 C 0 km/h
253 08-06-2010 02:29:03 14.1 C 8.25 g/m*3 14.1 C 0 km/h
254 08-06-2010 02:41:03 14 C 8.32 g/m*3 14 C 0 km/h
255 08-06-2010 02:53:03 14.1 C 8.37 g/m*3 14.1 C 0 km/h
256 08-06-2010 03:05:03 14.1 C 8.37 g/m*3 14.1 C 0 km/h
257 08-06-2010 03:17:04 14.1 C 8.37 g/m*3 14.1 C 0 km/h
258 08-06-2010 03:29:04 13.9 C 8.39 g/m*3 13.9 C 0 km/h
259 08-06-2010 03:41:04 13.6 C 8.36 g/m*3 13.6 C 0 km/h
260 08-06-2010 03:53:04 13.5 C 8.3 g/m*3 13.5 C 0 km/h
261 08-06-2010 04:05:04 13.4 C 8.25 g/m*3 13.4 C 0 km/h
262 08-06-2010 04:17:04 13 C 8.05 g/m*3 13 C 0 km/h
263 08-06-2010 04:29:04 13.2 C 8.27 g/m*3 13.2 C 0 km/h
264 08-06-2010 04:41:04 13.2 C 8.27 g/m*3 13.2 C 0 km/h
265 08-06-2010 04:53:04 13.2 C 8.27 g/m*3 13.2 C 0 km/h
266 08-06-2010 05:05:04 13.3 C 8.32 g/m*3 13.3 C 0 km/h
267 08-06-2010 05:17:04 13.4 C 8.49 g/m*3 13.4 C 0 km/h
268 08-06-2010 05:29:04 13.6 C 8.47 g/m*3 13.6 C 0 km/h
269 08-06-2010 05:41:04 13.4 C 8.37 g/m*3 13.4 C 0 km/h
270 08-06-2010 05:53:04 13.3 C 8.43 g/m*3 13.3 C 0 km/h
271 08-06-2010 06:05:04 13.2 C 8.5 g/m*3 13.2 C 0 km/h
272 08-06-2010 06:17:04 13.5 C 8.66 g/m*3 13.5 C 0 km/h
273 08-06-2010 06:29:04 13.9 C 8.75 g/m*3 13.9 C 0 km/h
274 08-06-2010 06:41:04 13.7 C 8.53 g/m*3 13.7 C 0 km/h
275 08-06-2010 06:53:04 14 C 8.68 g/m*3 14 C 0 km/h
Sensor: Nr:Datum:Temp:Abs-Feuchte:Windchill:Wind:
Aussen-T/F 276 08-06-2010 07:05:02 13.9 C 8.63 g/m*3 13.9 C 0 km/h
277 08-06-2010 07:17:01 13.9 C 8.75 g/m*3 13.9 C 0 km/h
278 08-06-2010 07:29:01 14.2 C 8.79 g/m*3 14.2 C 0 km/h
279 08-06-2010 07:41:02 14.6 C 8.88 g/m*3 14.6 C 0 km/h
280 08-06-2010 07:53:02 15.2 C 8.96 g/m*3 15.2 C 0 km/h
281 08-06-2010 08:05:02 15.6 C 9.04 g/m*3 15.6 C 0 km/h
282 08-06-2010 08:17:02 16 C 8.86 g/m*3 16 C 0 km/h
283 08-06-2010 08:29:02 16.3 C 8.88 g/m*3 16.3 C 0 km/h
284 08-06-2010 08:41:02 17.2 C 8.93 g/m*3 17.2 C 0 km/h
285 08-06-2010 08:53:02 17.4 C 8.74 g/m*3 17.4 C 0 km/h
286 08-06-2010 09:05:03 18.1 C 8.96 g/m*3 18.1 C 0 km/h
287 08-06-2010 09:17:02 18.6 C 8.91 g/m*3 18.6 C 0 km/h
288 08-06-2010 09:29:02 19.2 C 8.9 g/m*3 19.2 C 0 km/h
289 08-06-2010 09:41:02 19.9 C 9.11 g/m*3 19.9 C 0 km/h
290 08-06-2010 09:53:01 20.1 C 8.87 g/m*3 20.1 C 0 km/h
291 08-06-2010 10:05:02 20.6 C 9.49 g/m*3 20.6 C 0 km/h
292 08-06-2010 10:17:01 21.1 C 8.66 g/m*3 21.1 C 0 km/h
293 08-06-2010 10:29:01 21.8 C 8.25 g/m*3 21.8 C 0 km/h
294 08-06-2010 10:41:02 22.6 C 8.44 g/m*3 22.6 C 0 km/h
295 08-06-2010 10:53:01 23.5 C 8.67 g/m*3 23.5 C 0 km/h
296 08-06-2010 11:05:02 24.3 C 8.63 g/m*3 24.3 C 0 km/h
297 08-06-2010 11:17:02 24.5 C 8.28 g/m*3 24.5 C 0 km/h
298 08-06-2010 11:29:02 25.3 C 7.96 g/m*3 25.3 C 0 km/h
299 08-06-2010 11:41:01 26.3 C 7.67 g/m*3 26.3 C 0 km/h
300 08-06-2010 11:53:01 26.9 C 7.68 g/m*3 26.9 C 0 km/h
Sensor: Nr:Datum:Temp:Abs-Feuchte:Windchill:Wind:
Aussen-T/F 301 08-06-2010 12:05:01 27.2 C 7.81 g/m*3 27.2 C 0 km/h
302 08-06-2010 12:17:02 27 C 7.21 g/m*3 27 C 0 km/h
303 08-06-2010 12:29:02 28.8 C 7.39 g/m*3 28.8 C 0 km/h
304 08-06-2010 12:41:01 28.4 C 6.67 g/m*3 28.4 C 0 km/h
305 08-06-2010 12:53:02 28.2 C 6.87 g/m*3 28.2 C 0 km/h
306 08-06-2010 13:05:01 28 C 7.07 g/m*3 28 C 0 km/h
307 08-06-2010 13:17:02 28.6 C 6.46 g/m*3 28.6 C 0 km/h
308 08-06-2010 13:29:02 27.6 C 6.65 g/m*3 27.6 C 0 km/h
309 08-06-2010 13:41:01 26.7 C 6.58 g/m*3 26.7 C 0 km/h
310 08-06-2010 13:53:02 27 C 6.95 g/m*3 27 C 0 km/h
311 08-06-2010 14:05:02 26.5 C 7.51 g/m*3 26.5 C 0 km/h
312 08-06-2010 14:17:02 26.2 C 7.88 g/m*3 26.2 C 0 km/h
313 08-06-2010 14:29:02 25.7 C 8.38 g/m*3 25.7 C 0 km/h
314 08-06-2010 14:41:02 26.3 C 8.66 g/m*3 26.3 C 0 km/h
315 08-06-2010 14:53:02 26.7 C 8.61 g/m*3 26.7 C 0 km/h
316 08-06-2010 15:05:01 26.9 C 8.96 g/m*3 26.9 C 0 km/h
317 08-06-2010 15:17:02 26.6 C 8.31 g/m*3 26.6 C 0 km/h
318 08-06-2010 15:29:02 26.5 C 8.01 g/m*3 26.5 C 0 km/h
319 08-06-2010 15:41:01 25.6 C 8.33 g/m*3 25.6 C 0 km/h
320 08-06-2010 15:53:02 26.2 C 8.37 g/m*3 26.2 C 0 km/h
321 08-06-2010 16:05:02 25.3 C 7.73 g/m*3 25.3 C 0 km/h
322 08-06-2010 16:17:02 23.7 C 7.91 g/m*3 23.7 C 0 km/h
323 08-06-2010 16:29:02 22.1 C 8.39 g/m*3 22.1 C 0 km/h
324 08-06-2010 16:41:01 21.7 C 8.39 g/m*3 21.7 C 0 km/h
325 08-06-2010 16:53:02 20.3 C 9.5 g/m*3 20.3 C 0 km/h
Sensor: Nr:Datum:Temp:Abs-Feuchte:Windchill:Wind:
Aussen-T/F 326 08-06-2010 17:05:02 20.2 C 11.19 g/m*3 20.2 C 0 km/h
327 08-06-2010 17:17:02 20.6 C 11.1 g/m*3 20.6 C 0 km/h
328 08-06-2010 17:29:02 20.9 C 10.38 g/m*3 20.9 C 0 km/h
329 08-06-2010 17:41:02 21.1 C 9.77 g/m*3 21.1 C 0 km/h
330 08-06-2010 17:53:02 21.4 C 9.94 g/m*3 21.4 C 0 km/h
331 08-06-2010 18:05:03 21.9 C 10.61 g/m*3 21.9 C 0 km/h
332 08-06-2010 18:17:03 22.6 C 9.84 g/m*3 22.6 C 0 km/h
333 08-06-2010 18:29:03 23.1 C 10.13 g/m*3 23.1 C 0 km/h
334 08-06-2010 18:41:03 23.8 C 9.9 g/m*3 23.8 C 0 km/h
335 08-06-2010 18:53:03 23.9 C 10.17 g/m*3 23.9 C 0 km/h
336 08-06-2010 19:05:03 23.7 C 10.69 g/m*3 23.7 C 0 km/h
337 08-06-2010 19:17:02 23.6 C 10.42 g/m*3 23.6 C 0 km/h
338 08-06-2010 19:29:02 23.2 C 9.77 g/m*3 23.2 C 0 km/h
339 08-06-2010 19:41:02 22.9 C 9.81 g/m*3 22.9 C 0 km/h
340 08-06-2010 19:53:02 22.6 C 10.04 g/m*3 22.6 C 0 km/h
341 08-06-2010 20:05:02 22.5 C 10.19 g/m*3 22.5 C 0 km/h
342 08-06-2010 20:17:02 22.3 C 10.27 g/m*3 22.3 C 0 km/h
343 08-06-2010 20:29:02 22 C 10.67 g/m*3 22 C 0 km/h
344 08-06-2010 20:41:02 21.7 C 10.49 g/m*3 21.7 C 0 km/h
345 08-06-2010 20:53:02 21.5 C 10.56 g/m*3 21.5 C 0 km/h
346 08-06-2010 21:05:03 21.3 C 10.44 g/m*3 21.3 C 0 km/h
347 08-06-2010 21:17:02 21 C 10.62 g/m*3 21 C 0 km/h
348 08-06-2010 21:29:02 20.8 C 10.86 g/m*3 20.8 C 0 km/h
349 08-06-2010 21:41:02 20.4 C 10.79 g/m*3 20.4 C 0 km/h
350 08-06-2010 21:53:02 19.5 C 11.41 g/m*3 19.5 C 0 km/h
Sensor: Nr:Datum:Temp:Abs-Feuchte:Windchill:Wind:
Aussen-T/F 351 08-06-2010 22:06:41 19 C 11.9 g/m*3 19 C 0 km/h
352 08-06-2010 22:18:41 18.8 C 12.4 g/m*3 18.8 C 0 km/h
353 08-06-2010 22:30:41 18.5 C 12.34 g/m*3 18.5 C 0 km/h
354 08-06-2010 22:42:41 18.3 C 12.35 g/m*3 18.3 C 0 km/h
355 08-06-2010 22:54:42 18.2 C 12.43 g/m*3 18.2 C 0 km/h
356 08-06-2010 23:06:42 18.1 C 12.52 g/m*3 18.1 C 0 km/h
357 08-06-2010 23:18:42 18.2 C 12.59 g/m*3 18.2 C 0 km/h
358 08-06-2010 23:30:42 18.1 C 12.52 g/m*3 18.1 C 0 km/h
359 08-06-2010 23:42:42 18.1 C 12.36 g/m*3 18.1 C 0 km/h
360 08-06-2010 23:54:42 17.9 C 12.52 g/m*3 17.9 C 0 km/h
361 09-06-2010 00:06:42 17.8 C 12.6 g/m*3 17.8 C 0 km/h
362 09-06-2010 00:18:42 17.8 C 12.6 g/m*3 17.8 C 0 km/h
363 09-06-2010 00:30:42 17.7 C 12.52 g/m*3 17.7 C 0 km/h
364 09-06-2010 00:42:42 17.7 C 12.52 g/m*3 17.7 C 0 km/h
365 09-06-2010 00:54:42 17.7 C 12.52 g/m*3 17.7 C 0 km/h
366 09-06-2010 01:06:42 17.7 C 12.52 g/m*3 17.7 C 0 km/h
367 09-06-2010 01:18:42 17.6 C 12.45 g/m*3 17.6 C 0 km/h
368 09-06-2010 01:30:42 17.7 C 12.52 g/m*3 17.7 C 0 km/h
369 09-06-2010 01:42:42 17.7 C 12.22 g/m*3 17.7 C 0 km/h
370 09-06-2010 01:54:42 17.7 C 11.92 g/m*3 17.7 C 0 km/h
371 09-06-2010 02:06:42 17.3 C 11.64 g/m*3 17.3 C 0 km/h
372 09-06-2010 02:18:42 17.1 C 11.79 g/m*3 17.1 C 0 km/h
373 09-06-2010 02:30:42 16.9 C 11.79 g/m*3 16.9 C 0 km/h
374 09-06-2010 02:42:42 17 C 12.01 g/m*3 17 C 0 km/h
375 09-06-2010 02:54:42 17.1 C 12.08 g/m*3 17.1 C 0 km/h
Sensor: Nr:Datum:Temp:Abs-Feuchte:Windchill:Wind:
Aussen-T/F 376 09-06-2010 03:06:43 17.1 C 12.08 g/m*3 17.1 C 0 km/h
377 09-06-2010 03:18:43 17.1 C 12.08 g/m*3 17.1 C 0 km/h
378 09-06-2010 03:30:43 17 C 12.15 g/m*3 17 C 0 km/h
379 09-06-2010 03:42:43 17.1 C 12.08 g/m*3 17.1 C 0 km/h
380 09-06-2010 03:54:43 17 C 12.01 g/m*3 17 C 0 km/h
381 09-06-2010 04:06:43 17 C 12.15 g/m*3 17 C 0 km/h
382 09-06-2010 04:18:43 17 C 12.01 g/m*3 17 C 0 km/h
383 09-06-2010 04:30:43 16.9 C 12.08 g/m*3 16.9 C 0 km/h
384 09-06-2010 04:42:43 17 C 12.01 g/m*3 17 C 0 km/h
385 09-06-2010 04:54:43 16.9 C 12.08 g/m*3 16.9 C 0 km/h
386 09-06-2010 05:06:43 16.9 C 12.08 g/m*3 16.9 C 0 km/h
387 09-06-2010 05:18:43 16.8 C 12.01 g/m*3 16.8 C 0 km/h
388 09-06-2010 05:30:43 16.8 C 12.01 g/m*3 16.8 C 0 km/h
389 09-06-2010 05:42:43 16.8 C 12.01 g/m*3 16.8 C 0 km/h
390 09-06-2010 05:54:43 16.9 C 11.94 g/m*3 16.9 C 0 km/h
391 09-06-2010 06:06:43 16.9 C 11.94 g/m*3 16.9 C 0 km/h
392 09-06-2010 06:18:43 16.9 C 11.94 g/m*3 16.9 C 0 km/h
393 09-06-2010 06:30:43 17 C 11.87 g/m*3 17 C 0 km/h
394 09-06-2010 06:42:43 17.2 C 12.01 g/m*3 17.2 C 0 km/h
395 09-06-2010 06:54:01 17.3 C 12.08 g/m*3 17.3 C 0 km/h
396 09-06-2010 07:06:02 17.8 C 12.45 g/m*3 17.8 C 0 km/h
397 09-06-2010 07:18:01 17.9 C 12.21 g/m*3 17.9 C 0 km/h
398 09-06-2010 07:30:01 18.1 C 12.05 g/m*3 18.1 C 0 km/h
399 09-06-2010 07:42:02 18.4 C 12.11 g/m*3 18.4 C 0 km/h
400 09-06-2010 07:54:02 18.8 C 12.4 g/m*3 18.8 C 0 km/h
Sensor: Nr:Datum:Temp:Abs-Feuchte:Windchill:Wind:
Aussen-T/F 401 09-06-2010 08:06:02 19 C 12.06 g/m*3 19 C 0 km/h
402 09-06-2010 08:18:02 19.6 C 12.49 g/m*3 19.6 C 0 km/h
403 09-06-2010 08:30:02 19.9 C 12.37 g/m*3 19.9 C 0 km/h
404 09-06-2010 08:42:02 20.4 C 12.56 g/m*3 20.4 C 0 km/h
405 09-06-2010 08:54:02 20.8 C 12.13 g/m*3 20.8 C 0 km/h
406 09-06-2010 09:06:03 20.9 C 12.02 g/m*3 20.9 C 0 km/h
407 09-06-2010 09:18:02 21.6 C 11.95 g/m*3 21.6 C 0 km/h
408 09-06-2010 09:30:02 21.7 C 11.83 g/m*3 21.7 C 0 km/h
409 09-06-2010 09:42:01 22.3 C 11.65 g/m*3 22.3 C 0 km/h
410 09-06-2010 09:54:02 22.5 C 11.78 g/m*3 22.5 C 0 km/h
411 09-06-2010 10:06:01 23.3 C 11.5 g/m*3 23.3 C 0 km/h
412 09-06-2010 10:18:02 23 C 11.72 g/m*3 23 C 0 km/h
413 09-06-2010 10:30:02 23.3 C 11.5 g/m*3 23.3 C 0 km/h
414 09-06-2010 10:42:02 24.2 C 11.44 g/m*3 24.2 C 0 km/h
415 09-06-2010 10:54:02 24.8 C 10.93 g/m*3 24.8 C 0 km/h
416 09-06-2010 11:06:02 25.5 C 10.65 g/m*3 25.5 C 0 km/h
417 09-06-2010 11:18:02 25.7 C 10.53 g/m*3 25.7 C 0 km/h
418 09-06-2010 11:30:02 24.8 C 10.24 g/m*3 24.8 C 0 km/h
419 09-06-2010 11:42:02 25.5 C 9.94 g/m*3 25.5 C 0 km/h
420 09-06-2010 11:54:02 26.3 C 9.41 g/m*3 26.3 C 0 km/h
421 09-06-2010 12:06:01 26.8 C 9.16 g/m*3 26.8 C 0 km/h
422 09-06-2010 12:18:01 26.1 C 8.57 g/m*3 26.1 C 0 km/h
423 09-06-2010 12:30:01 26.3 C 8.91 g/m*3 26.3 C 0 km/h
424 09-06-2010 12:42:02 26.7 C 9.11 g/m*3 26.7 C 0 km/h
425 09-06-2010 12:54:02 26.1 C 8.81 g/m*3 26.1 C 0 km/h
Sensor: Nr:Datum:Temp:Abs-Feuchte:Windchill:Wind:
Aussen-T/F 426 09-06-2010 13:06:02 26.3 C 8.66 g/m*3 26.3 C 0 km/h
427 09-06-2010 13:18:02 26.6 C 9.06 g/m*3 26.6 C 0 km/h
428 09-06-2010 13:30:02 26.3 C 8.91 g/m*3 26.3 C 0 km/h
429 09-06-2010 13:42:02 26.9 C 9.47 g/m*3 26.9 C 0 km/h
430 09-06-2010 13:54:02 27.5 C 8.73 g/m*3 27.5 C 0 km/h
431 09-06-2010 14:06:02 27.9 C 8.92 g/m*3 27.9 C 0 km/h
432 09-06-2010 14:18:02 28.4 C 9.45 g/m*3 28.4 C 0 km/h
433 09-06-2010 14:30:02 29.1 C 9.24 g/m*3 29.1 C 0 km/h
434 09-06-2010 14:42:02 29.1 C 8.95 g/m*3 29.1 C 0 km/h
435 09-06-2010 14:54:02 29.2 C 9 g/m*3 29.2 C 0 km/h
436 09-06-2010 15:06:02 28.6 C 8.71 g/m*3 28.6 C 0 km/h
437 09-06-2010 15:18:03 29.7 C 8.95 g/m*3 29.7 C 0 km/h
438 09-06-2010 15:30:03 30 C 7.88 g/m*3 30 C 0 km/h
439 09-06-2010 15:42:02 29.7 C 7.76 g/m*3 29.7 C 0 km/h
440 09-06-2010 15:54:02 29.7 C 7.46 g/m*3 29.7 C 0 km/h
441 09-06-2010 16:06:02 29.8 C 7.5 g/m*3 29.8 C 0 km/h
442 09-06-2010 16:18:02 29.3 C 7.59 g/m*3 29.3 C 0 km/h
443 09-06-2010 16:30:02 29 C 7.18 g/m*3 29 C 0 km/h
444 09-06-2010 16:42:02 29.2 C 7.26 g/m*3 29.2 C 0 km/h
445 09-06-2010 16:54:02 29.4 C 8.22 g/m*3 29.4 C 0 km/h
446 09-06-2010 17:06:02 28.7 C 9.04 g/m*3 28.7 C 0 km/h
447 09-06-2010 17:18:03 28.4 C 8.62 g/m*3 28.4 C 0 km/h
448 09-06-2010 17:30:03 27.7 C 9.36 g/m*3 27.7 C 0 km/h
449 09-06-2010 17:42:01 27.3 C 9.16 g/m*3 27.3 C 0 km/h
450 09-06-2010 17:54:02 27.2 C 9.63 g/m*3 27.2 C 0 km/h
Sensor: Nr:Datum:Temp:Abs-Feuchte:Windchill:Wind:
Aussen-T/F 451 09-06-2010 18:06:01 27 C 9.26 g/m*3 27 C 0 km/h
452 09-06-2010 18:18:02 27 C 9.01 g/m*3 27 C 0 km/h
453 09-06-2010 18:30:03 26.9 C 9.47 g/m*3 26.9 C 0 km/h
454 09-06-2010 18:42:01 26.3 C 8.91 g/m*3 26.3 C 0 km/h
455 09-06-2010 18:54:02 26.3 C 9.65 g/m*3 26.3 C 0 km/h
456 09-06-2010 19:06:02 26.6 C 9.57 g/m*3 26.6 C 0 km/h
457 09-06-2010 19:18:02 26.5 C 10.01 g/m*3 26.5 C 0 km/h
458 09-06-2010 19:30:02 26.2 C 9.6 g/m*3 26.2 C 0 km/h
459 09-06-2010 19:42:03 25.9 C 9.68 g/m*3 25.9 C 0 km/h
460 09-06-2010 19:54:02 25.6 C 9.76 g/m*3 25.6 C 0 km/h
461 09-06-2010 20:06:01 25.3 C 9.6 g/m*3 25.3 C 0 km/h
462 09-06-2010 20:18:02 25.3 C 9.83 g/m*3 25.3 C 0 km/h
463 09-06-2010 20:30:02 24.8 C 9.56 g/m*3 24.8 C 0 km/h
464 09-06-2010 20:42:02 24.4 C 9.12 g/m*3 24.4 C 0 km/h
465 09-06-2010 20:54:02 24.1 C 8.97 g/m*3 24.1 C 0 km/h
466 09-06-2010 21:06:03 23.8 C 9.25 g/m*3 23.8 C 0 km/h
467 09-06-2010 21:18:02 23.6 C 8.93 g/m*3 23.6 C 0 km/h
468 09-06-2010 21:30:02 23.3 C 9.2 g/m*3 23.3 C 0 km/h
469 09-06-2010 21:42:02 23.2 C 9.15 g/m*3 23.2 C 0 km/h
470 09-06-2010 21:54:01 23.1 C 9.51 g/m*3 23.1 C 0 km/h
471 09-06-2010 22:06:01 23 C 8.84 g/m*3 23 C 0 km/h
472 09-06-2010 22:19:03 23.1 C 8.48 g/m*3 23.1 C 0 km/h
473 09-06-2010 22:31:03 23.2 C 8.32 g/m*3 23.2 C 0 km/h
474 09-06-2010 22:43:03 23.1 C 8.48 g/m*3 23.1 C 0 km/h
475 09-06-2010 22:55:03 22.4 C 8.94 g/m*3 22.4 C 0 km/h
Sensor: Nr:Datum:Temp:Abs-Feuchte:Windchill:Wind:
Aussen-T/F 476 09-06-2010 23:07:03 19.8 C 12.13 g/m*3 19.8 C 0 km/h
477 09-06-2010 23:19:03 19.6 C 12.66 g/m*3 19.6 C 0 km/h
478 09-06-2010 23:31:03 19.4 C 12.51 g/m*3 19.4 C 0 km/h
479 09-06-2010 23:43:03 19 C 12.22 g/m*3 19 C 0 km/h
480 09-06-2010 23:55:03 18.5 C 12.97 g/m*3 18.5 C 0 km/h
481 10-06-2010 00:07:03 18.4 C 13.21 g/m*3 18.4 C 0 km/h
482 10-06-2010 00:19:03 18.1 C 13.29 g/m*3 18.1 C 0 km/h
483 10-06-2010 00:31:03 18 C 13.36 g/m*3 18 C 0 km/h
484 10-06-2010 00:43:03 17.8 C 13.36 g/m*3 17.8 C 0 km/h
485 10-06-2010 00:55:04 17.9 C 13.59 g/m*3 17.9 C 0 km/h
486 10-06-2010 01:07:04 17.8 C 13.66 g/m*3 17.8 C 0 km/h
487 10-06-2010 01:19:04 17.6 C 13.5 g/m*3 17.6 C 0 km/h
488 10-06-2010 01:31:04 17.7 C 13.73 g/m*3 17.7 C 0 km/h
489 10-06-2010 01:43:04 17.5 C 13.57 g/m*3 17.5 C 0 km/h
490 10-06-2010 01:55:04 17.4 C 13.49 g/m*3 17.4 C 0 km/h
491 10-06-2010 02:07:04 17.5 C 13.72 g/m*3 17.5 C 0 km/h
492 10-06-2010 02:19:04 17.4 C 13.63 g/m*3 17.4 C 0 km/h
493 10-06-2010 02:31:04 17.1 C 13.39 g/m*3 17.1 C 0 km/h
494 10-06-2010 02:43:04 17 C 13.17 g/m*3 17 C 0 km/h
495 10-06-2010 02:55:04 16.9 C 13.23 g/m*3 16.9 C 0 km/h
496 10-06-2010 03:07:04 16.9 C 13.23 g/m*3 16.9 C 0 km/h
497 10-06-2010 03:19:04 16.9 C 13.23 g/m*3 16.9 C 0 km/h
498 10-06-2010 03:31:04 17 C 13.17 g/m*3 17 C 0 km/h
499 10-06-2010 03:43:04 17.1 C 13.25 g/m*3 17.1 C 0 km/h
500 10-06-2010 03:55:04 17 C 13.17 g/m*3 17 C 0 km/h
Sensor: Nr:Datum:Temp:Abs-Feuchte:Windchill:Wind:
Aussen-T/F 501 10-06-2010 04:07:04 17 C 13.02 g/m*3 17 C 0 km/h
502 10-06-2010 04:19:04 17.1 C 13.25 g/m*3 17.1 C 0 km/h
503 10-06-2010 04:31:04 17.1 C 13.1 g/m*3 17.1 C 0 km/h
504 10-06-2010 04:43:04 17.1 C 13.1 g/m*3 17.1 C 0 km/h
505 10-06-2010 04:55:04 17 C 13.02 g/m*3 17 C 0 km/h
506 10-06-2010 05:07:05 16.8 C 13.01 g/m*3 16.8 C 0 km/h
507 10-06-2010 05:19:05 16.9 C 13.23 g/m*3 16.9 C 0 km/h
508 10-06-2010 05:31:05 16.8 C 13.15 g/m*3 16.8 C 0 km/h
509 10-06-2010 05:43:05 16.9 C 13.23 g/m*3 16.9 C 0 km/h
510 10-06-2010 05:55:05 17 C 13.17 g/m*3 17 C 0 km/h
511 10-06-2010 06:07:05 17.1 C 13.39 g/m*3 17.1 C 0 km/h
512 10-06-2010 06:19:05 17.1 C 13.39 g/m*3 17.1 C 0 km/h
513 10-06-2010 06:31:05 17.2 C 13.47 g/m*3 17.2 C 0 km/h
514 10-06-2010 06:43:05 17.4 C 13.63 g/m*3 17.4 C 0 km/h
515 10-06-2010 06:55:05 17.6 C 13.8 g/m*3 17.6 C 0 km/h
516 10-06-2010 07:07:05 17.7 C 13.88 g/m*3 17.7 C 0 km/h
517 10-06-2010 07:19:05 17.8 C 13.81 g/m*3 17.8 C 0 km/h
518 10-06-2010 07:31:05 17.9 C 13.89 g/m*3 17.9 C 0 km/h
519 10-06-2010 07:43:05 18 C 13.82 g/m*3 18 C 0 km/h
520 10-06-2010 07:55:02 18.1 C 13.91 g/m*3 18.1 C 0 km/h
521 10-06-2010 08:07:02 18.7 C 14.41 g/m*3 18.7 C 0 km/h
522 10-06-2010 08:19:03 19 C 14.5 g/m*3 19 C 0 km/h
523 10-06-2010 08:31:02 19 C 14.34 g/m*3 19 C 0 km/h
524 10-06-2010 08:43:02 19 C 14.18 g/m*3 19 C 0 km/h
525 10-06-2010 08:55:02 19.1 C 14.26 g/m*3 19.1 C 0 km/h
Sensor: Nr:Datum:Temp:Abs-Feuchte:Windchill:Wind:
Aussen-T/F 526 10-06-2010 09:07:02 19.2 C 14.18 g/m*3 19.2 C 0 km/h
527 10-06-2010 09:19:02 19.4 C 14.18 g/m*3 19.4 C 0 km/h
528 10-06-2010 09:31:02 19.5 C 14.27 g/m*3 19.5 C 0 km/h
529 10-06-2010 09:43:02 19.2 C 14.02 g/m*3 19.2 C 0 km/h
530 10-06-2010 09:55:02 20 C 14.69 g/m*3 20 C 0 km/h
531 10-06-2010 10:07:02 20.7 C 14.76 g/m*3 20.7 C 0 km/h
532 10-06-2010 10:19:02 21.2 C 14.08 g/m*3 21.2 C 0 km/h
533 10-06-2010 10:31:01 21.9 C 13.89 g/m*3 21.9 C 0 km/h
534 10-06-2010 10:43:01 21.5 C 12.82 g/m*3 21.5 C 0 km/h
535 10-06-2010 10:55:02 21.4 C 12.94 g/m*3 21.4 C 0 km/h
536 10-06-2010 11:07:01 21.6 C 13.09 g/m*3 21.6 C 0 km/h
537 10-06-2010 11:19:02 21.9 C 12.93 g/m*3 21.9 C 0 km/h
538 10-06-2010 11:31:02 22.1 C 13.08 g/m*3 22.1 C 0 km/h
539 10-06-2010 11:43:02 22.3 C 12.24 g/m*3 22.3 C 0 km/h
540 10-06-2010 11:55:02 22.7 C 12.73 g/m*3 22.7 C 0 km/h
541 10-06-2010 12:07:03 23.1 C 12.4 g/m*3 23.1 C 0 km/h
542 10-06-2010 12:19:02 24.6 C 12.15 g/m*3 24.6 C 0 km/h
543 10-06-2010 12:31:02 24.9 C 10.99 g/m*3 24.9 C 0 km/h
544 10-06-2010 12:43:02 26.1 C 10.53 g/m*3 26.1 C 0 km/h
545 10-06-2010 12:55:01 26.1 C 10.28 g/m*3 26.1 C 0 km/h
546 10-06-2010 13:07:02 25.7 C 11.01 g/m*3 25.7 C 0 km/h
547 10-06-2010 13:19:01 25.9 C 10.89 g/m*3 25.9 C 0 km/h
548 10-06-2010 13:31:01 26.9 C 10.49 g/m*3 26.9 C 0 km/h
549 10-06-2010 13:43:01 29.3 C 10.51 g/m*3 29.3 C 0 km/h
550 10-06-2010 13:55:01 28.5 C 10.62 g/m*3 28.5 C 0 km/h
Sensor: Nr:Datum:Temp:Abs-Feuchte:Windchill:Wind:
Aussen-T/F 551 10-06-2010 14:07:02 28.5 C 11.18 g/m*3 28.5 C 0 km/h
552 10-06-2010 14:19:01 29.1 C 10.97 g/m*3 29.1 C 0 km/h
553 10-06-2010 14:31:02 28.1 C 11.48 g/m*3 28.1 C 0 km/h
554 10-06-2010 14:43:02 27 C 12.87 g/m*3 27 C 0 km/h
555 10-06-2010 14:55:01 26.6 C 13.59 g/m*3 26.6 C 0 km/h
556 10-06-2010 15:07:02 28.3 C 12.16 g/m*3 28.3 C 0 km/h
557 10-06-2010 15:19:02 28.9 C 11.43 g/m*3 28.9 C 0 km/h
558 10-06-2010 15:31:01 28.9 C 11.43 g/m*3 28.9 C 0 km/h
559 10-06-2010 15:43:01 28 C 11.97 g/m*3 28 C 0 km/h
560 10-06-2010 15:55:02 27.4 C 12.1 g/m*3 27.4 C 0 km/h
561 10-06-2010 16:07:01 26.8 C 13.24 g/m*3 26.8 C 0 km/h
562 10-06-2010 16:19:02 26.1 C 13.22 g/m*3 26.1 C 0 km/h
563 10-06-2010 16:31:01 26.1 C 13.71 g/m*3 26.1 C 0 km/h
564 10-06-2010 16:43:01 27.2 C 13.27 g/m*3 27.2 C 0 km/h
565 10-06-2010 16:55:02 27.8 C 12.64 g/m*3 27.8 C 0 km/h
566 10-06-2010 17:07:02 28.3 C 12.99 g/m*3 28.3 C 0 km/h
567 10-06-2010 17:19:02 27.8 C 13.45 g/m*3 27.8 C 0 km/h
568 10-06-2010 17:31:02 29 C 12.35 g/m*3 29 C 0 km/h
569 10-06-2010 17:43:02 29.1 C 13 g/m*3 29.1 C 0 km/h
570 10-06-2010 17:55:02 30.5 C 11.53 g/m*3 30.5 C 0 km/h
571 10-06-2010 18:07:02 30.4 C 11.47 g/m*3 30.4 C 0 km/h
572 10-06-2010 18:19:02 30.4 C 11.16 g/m*3 30.4 C 0 km/h
573 10-06-2010 18:31:02 31.2 C 10.35 g/m*3 31.2 C 0 km/h
574 10-06-2010 18:43:02 31.3 C 11.06 g/m*3 31.3 C 0 km/h
575 10-06-2010 18:55:02 31.2 C 11 g/m*3 31.2 C 0 km/h
Sensor: Nr:Datum:Temp:Abs-Feuchte:Windchill:Wind:
Aussen-T/F 576 10-06-2010 19:07:02 31.7 C 11.3 g/m*3 31.7 C 0 km/h
577 10-06-2010 19:19:02 31.7 C 10.3 g/m*3 31.7 C 0 km/h
578 10-06-2010 19:31:02 31.3 C 11.71 g/m*3 31.3 C 0 km/h
579 10-06-2010 19:43:02 31.1 C 12.23 g/m*3 31.1 C 0 km/h
580 10-06-2010 19:55:01 30.4 C 13.01 g/m*3 30.4 C 0 km/h
581 10-06-2010 20:07:02 29.6 C 13.35 g/m*3 29.6 C 0 km/h
582 10-06-2010 20:19:02 29.1 C 13.57 g/m*3 29.1 C 0 km/h
583 10-06-2010 20:31:01 28.2 C 14.02 g/m*3 28.2 C 0 km/h
584 10-06-2010 20:43:01 27.2 C 14.31 g/m*3 27.2 C 0 km/h
585 10-06-2010 20:55:02 26.3 C 14.11 g/m*3 26.3 C 0 km/h
586 10-06-2010 21:07:01 25.7 C 14.13 g/m*3 25.7 C 0 km/h
587 10-06-2010 21:19:02 25.2 C 13.04 g/m*3 25.2 C 0 km/h
588 10-06-2010 21:31:01 25 C 12.66 g/m*3 25 C 0 km/h
589 10-06-2010 21:43:01 24.5 C 12.09 g/m*3 24.5 C 0 km/h
590 10-06-2010 21:55:02 24.4 C 12.24 g/m*3 24.4 C 0 km/h
591 10-06-2010 22:07:02 24.5 C 12.09 g/m*3 24.5 C 0 km/h
592 10-06-2010 22:19:01 24.4 C 12.02 g/m*3 24.4 C 0 km/h
593 10-06-2010 22:31:02 24.3 C 12.17 g/m*3 24.3 C 0 km/h
594 10-06-2010 22:43:02 24.1 C 12.25 g/m*3 24.1 C 0 km/h
595 10-06-2010 22:55:27 23.9 C 12.11 g/m*3 23.9 C 0 km/h
596 10-06-2010 23:07:27 23.7 C 12.19 g/m*3 23.7 C 0 km/h
597 10-06-2010 23:19:27 23.4 C 11.14 g/m*3 23.4 C 0 km/h
598 10-06-2010 23:31:27 22.1 C 10.74 g/m*3 22.1 C 0 km/h
599 10-06-2010 23:43:27 21.1 C 11.06 g/m*3 21.1 C 0 km/h
600 10-06-2010 23:55:27 19.7 C 12.06 g/m*3 19.7 C 0 km/h
Sensor: Nr:Datum:Temp:Abs-Feuchte:Windchill:Wind:
Aussen-T/F 601 11-06-2010 00:07:27 19.4 C 11.85 g/m*3 19.4 C 0 km/h
602 11-06-2010 00:19:27 20 C 11.41 g/m*3 20 C 0 km/h
603 11-06-2010 00:31:27 18.8 C 12.24 g/m*3 18.8 C 0 km/h
604 11-06-2010 00:43:27 18.3 C 12.66 g/m*3 18.3 C 0 km/h
605 11-06-2010 00:55:27 17.9 C 12.98 g/m*3 17.9 C 0 km/h
606 11-06-2010 01:07:28 17.7 C 13.13 g/m*3 17.7 C 0 km/h
607 11-06-2010 01:19:28 17.8 C 13.36 g/m*3 17.8 C 0 km/h
608 11-06-2010 01:31:28 17.8 C 13.51 g/m*3 17.8 C 0 km/h
609 11-06-2010 01:43:28 17.9 C 13.74 g/m*3 17.9 C 0 km/h
610 11-06-2010 01:55:28 18 C 13.82 g/m*3 18 C 0 km/h
611 11-06-2010 02:07:28 17.5 C 13.57 g/m*3 17.5 C 0 km/h
612 11-06-2010 02:19:28 17.5 C 13.57 g/m*3 17.5 C 0 km/h
613 11-06-2010 02:31:28 17.6 C 13.8 g/m*3 17.6 C 0 km/h
614 11-06-2010 02:43:28 17.7 C 13.88 g/m*3 17.7 C 0 km/h
615 11-06-2010 02:55:28 17.6 C 13.8 g/m*3 17.6 C 0 km/h
616 11-06-2010 03:07:28 17.4 C 13.63 g/m*3 17.4 C 0 km/h
617 11-06-2010 03:19:28 17.3 C 13.7 g/m*3 17.3 C 0 km/h
618 11-06-2010 03:31:28 17.5 C 13.87 g/m*3 17.5 C 0 km/h
619 11-06-2010 03:43:28 17.5 C 13.87 g/m*3 17.5 C 0 km/h
620 11-06-2010 03:55:28 17.3 C 13.7 g/m*3 17.3 C 0 km/h
621 11-06-2010 04:07:28 17.1 C 13.54 g/m*3 17.1 C 0 km/h
622 11-06-2010 04:19:28 17.1 C 13.54 g/m*3 17.1 C 0 km/h
623 11-06-2010 04:31:28 17.2 C 13.62 g/m*3 17.2 C 0 km/h
624 11-06-2010 04:43:28 17 C 13.46 g/m*3 17 C 0 km/h
625 11-06-2010 04:55:28 17.1 C 13.54 g/m*3 17.1 C 0 km/h
Sensor: Nr:Datum:Temp:Abs-Feuchte:Windchill:Wind:
Aussen-T/F 626 11-06-2010 05:07:28 17.1 C 13.54 g/m*3 17.1 C 0 km/h
627 11-06-2010 05:19:28 17 C 13.6 g/m*3 17 C 0 km/h
628 11-06-2010 05:31:29 16.9 C 13.52 g/m*3 16.9 C 0 km/h
629 11-06-2010 05:43:29 17 C 13.6 g/m*3 17 C 0 km/h
630 11-06-2010 05:55:29 17 C 13.6 g/m*3 17 C 0 km/h
631 11-06-2010 06:07:29 17 C 13.6 g/m*3 17 C 0 km/h
632 11-06-2010 06:19:29 17 C 13.6 g/m*3 17 C 0 km/h
633 11-06-2010 06:31:29 17 C 13.6 g/m*3 17 C 0 km/h
634 11-06-2010 06:43:29 17 C 13.6 g/m*3 17 C 0 km/h
635 11-06-2010 06:55:29 16.9 C 13.66 g/m*3 16.9 C 0 km/h
636 11-06-2010 07:07:29 16.9 C 13.66 g/m*3 16.9 C 0 km/h
637 11-06-2010 07:19:01 16.9 C 13.66 g/m*3 16.9 C 0 km/h
638 11-06-2010 07:31:32 16.9 C 13.66 g/m*3 16.9 C 0 km/h
639 11-06-2010 07:44:01 16.8 C 13.58 g/m*3 16.8 C 0 km/h
640 11-06-2010 07:55:02 16.9 C 13.66 g/m*3 16.9 C 0 km/h
641 11-06-2010 08:08:01 16.6 C 13.28 g/m*3 16.6 C 0 km/h
642 11-06-2010 08:19:01 16.8 C 13.3 g/m*3 16.8 C 0 km/h
643 11-06-2010 08:31:02 16.9 C 13.09 g/m*3 16.9 C 0 km/h
644 11-06-2010 08:43:02 17.3 C 13.11 g/m*3 17.3 C 0 km/h
645 11-06-2010 08:55:01 17.6 C 13.35 g/m*3 17.6 C 0 km/h
646 11-06-2010 09:07:02 18.1 C 13.44 g/m*3 18.1 C 0 km/h
647 11-06-2010 09:20:01 19 C 14.01 g/m*3 19 C 0 km/h
648 11-06-2010 09:31:01 20 C 14.34 g/m*3 20 C 0 km/h
649 11-06-2010 09:43:01 19.8 C 13.84 g/m*3 19.8 C 0 km/h
650 11-06-2010 09:56:01 19.7 C 12.57 g/m*3 19.7 C 0 km/h
Sensor: Nr:Datum:Temp:Abs-Feuchte:Windchill:Wind:
Aussen-T/F 651 11-06-2010 10:07:02 20 C 12.27 g/m*3 20 C 0 km/h
652 11-06-2010 10:20:01 20.3 C 11.78 g/m*3 20.3 C 0 km/h
653 11-06-2010 10:32:01 20.7 C 11.52 g/m*3 20.7 C 0 km/h
654 11-06-2010 10:44:01 21.1 C 11.61 g/m*3 21.1 C 0 km/h
655 11-06-2010 10:56:01 21.4 C 11.62 g/m*3 21.4 C 0 km/h
656 11-06-2010 11:07:01 21.8 C 11.13 g/m*3 21.8 C 0 km/h
657 11-06-2010 11:19:02 22.3 C 11.06 g/m*3 22.3 C 0 km/h
658 11-06-2010 11:32:01 22.6 C 10.85 g/m*3 22.6 C 0 km/h
659 11-06-2010 11:44:01 23.2 C 10.6 g/m*3 23.2 C 0 km/h
660 11-06-2010 11:56:01 23.9 C 10.38 g/m*3 23.9 C 0 km/h
661 11-06-2010 12:08:01 24 C 9.36 g/m*3 24 C 0 km/h
662 11-06-2010 12:19:02 25.4 C 9.18 g/m*3 25.4 C 0 km/h
663 11-06-2010 12:32:01 26.2 C 8.62 g/m*3 26.2 C 0 km/h
664 11-06-2010 12:44:01 25.9 C 8.23 g/m*3 25.9 C 0 km/h
665 11-06-2010 12:55:02 26.7 C 7.85 g/m*3 26.7 C 0 km/h
666 11-06-2010 13:08:01 27.2 C 8.07 g/m*3 27.2 C 0 km/h
667 11-06-2010 13:20:01 27.5 C 7.41 g/m*3 27.5 C 0 km/h
668 11-06-2010 13:31:02 27.8 C 7.8 g/m*3 27.8 C 0 km/h
669 11-06-2010 13:43:02 27.5 C 7.41 g/m*3 27.5 C 0 km/h
670 11-06-2010 13:55:01 27.9 C 7.84 g/m*3 27.9 C 0 km/h
671 11-06-2010 14:08:01 27.3 C 7.85 g/m*3 27.3 C 0 km/h
672 11-06-2010 14:20:01 26.9 C 7.68 g/m*3 26.9 C 0 km/h
673 11-06-2010 14:31:02 26.7 C 7.59 g/m*3 26.7 C 0 km/h
674 11-06-2010 14:43:02 27.1 C 7.25 g/m*3 27.1 C 0 km/h
675 11-06-2010 14:56:01 27.6 C 7.71 g/m*3 27.6 C 0 km/h
Sensor: Nr:Datum:Temp:Abs-Feuchte:Windchill:Wind:
Aussen-T/F 676 11-06-2010 15:07:02 28 C 7.34 g/m*3 28 C 0 km/h
677 11-06-2010 15:20:01 28.1 C 7.11 g/m*3 28.1 C 0 km/h
678 11-06-2010 15:32:01 28.7 C 7.63 g/m*3 28.7 C 0 km/h
679 11-06-2010 15:44:02 29.1 C 7.22 g/m*3 29.1 C 0 km/h
680 11-06-2010 15:56:01 29.5 C 7.38 g/m*3 29.5 C 0 km/h
681 11-06-2010 16:07:02 29.8 C 7.2 g/m*3 29.8 C 0 km/h
682 11-06-2010 16:20:01 29.7 C 6.86 g/m*3 29.7 C 0 km/h
683 11-06-2010 16:32:01 29.9 C 6.64 g/m*3 29.9 C 0 km/h
684 11-06-2010 16:44:01 30.1 C 7.01 g/m*3 30.1 C 0 km/h
685 11-06-2010 16:56:01 30.1 C 6.71 g/m*3 30.1 C 0 km/h
686 11-06-2010 17:07:02 30 C 6.37 g/m*3 30 C 0 km/h
687 11-06-2010 17:20:01 30.6 C 6.26 g/m*3 30.6 C 0 km/h
688 11-06-2010 17:32:01 30.6 C 6.26 g/m*3 30.6 C 0 km/h
689 11-06-2010 17:44:01 30.7 C 6.3 g/m*3 30.7 C 0 km/h
690 11-06-2010 17:56:01 31 C 6.4 g/m*3 31 C 0 km/h
691 11-06-2010 18:08:02 31 C 6.4 g/m*3 31 C 0 km/h
692 11-06-2010 18:20:01 31 C 6.4 g/m*3 31 C 0 km/h
693 11-06-2010 18:32:01 30.6 C 6.26 g/m*3 30.6 C 0 km/h
694 11-06-2010 18:44:01 30.6 C 6.26 g/m*3 30.6 C 0 km/h
695 11-06-2010 18:56:01 30.5 C 6.23 g/m*3 30.5 C 0 km/h
696 11-06-2010 19:08:01 30.6 C 6.26 g/m*3 30.6 C 0 km/h
697 11-06-2010 19:19:02 31 C 6.4 g/m*3 31 C 0 km/h
698 11-06-2010 19:32:01 31 C 6.4 g/m*3 31 C 0 km/h
699 11-06-2010 19:44:01 30.6 C 6.26 g/m*3 30.6 C 0 km/h
700 11-06-2010 19:56:01 30.3 C 7.09 g/m*3 30.3 C 0 km/h
Sensor: Nr:Datum:Temp:Abs-Feuchte:Windchill:Wind:
Aussen-T/F 701 11-06-2010 20:08:01 30 C 6.97 g/m*3 30 C 0 km/h
702 11-06-2010 20:20:02 29.5 C 7.08 g/m*3 29.5 C 0 km/h
703 11-06-2010 20:32:01 27.9 C 7.03 g/m*3 27.9 C 0 km/h
704 11-06-2010 20:44:01 27 C 7.46 g/m*3 27 C 0 km/h
705 11-06-2010 20:56:02 26 C 7.55 g/m*3 26 C 0 km/h
706 11-06-2010 21:08:01 25 C 7.83 g/m*3 25 C 0 km/h
707 11-06-2010 21:20:01 24.7 C 8.6 g/m*3 24.7 C 0 km/h
708 11-06-2010 21:32:01 24.3 C 8.85 g/m*3 24.3 C 0 km/h
709 11-06-2010 21:44:01 24.2 C 8.58 g/m*3 24.2 C 0 km/h
710 11-06-2010 21:56:02 24.2 C 8.58 g/m*3 24.2 C 0 km/h
711 11-06-2010 22:08:02 24 C 8.05 g/m*3 24 C 0 km/h
712 11-06-2010 22:20:01 24 C 8.27 g/m*3 24 C 0 km/h
713 11-06-2010 22:32:01 23.4 C 8.41 g/m*3 23.4 C 0 km/h
714 11-06-2010 22:44:01 23.2 C 7.9 g/m*3 23.2 C 0 km/h
715 11-06-2010 22:56:01 23.1 C 7.65 g/m*3 23.1 C 0 km/h
716 11-06-2010 23:08:02 23 C 7.4 g/m*3 23 C 0 km/h
717 11-06-2010 23:20:01 23 C 7.6 g/m*3 23 C 0 km/h
718 11-06-2010 23:32:01 23 C 7.6 g/m*3 23 C 0 km/h
719 11-06-2010 23:44:01 22.8 C 7.72 g/m*3 22.8 C 0 km/h
720 11-06-2010 23:56:01 22.5 C 7.99 g/m*3 22.5 C 0 km/h
721 12-06-2010 00:08:01 22.2 C 8.05 g/m*3 22.2 C 0 km/h
722 12-06-2010 00:20:01 22.1 C 8.78 g/m*3 22.1 C 0 km/h
723 12-06-2010 00:32:01 21.9 C 9.07 g/m*3 21.9 C 0 km/h
724 12-06-2010 00:44:01 21.8 C 9.02 g/m*3 21.8 C 0 km/h
725 12-06-2010 00:56:01 21.5 C 9.43 g/m*3 21.5 C 0 km/h
Sensor: Nr:Datum:Temp:Abs-Feuchte:Windchill:Wind:
Aussen-T/F 726 12-06-2010 01:08:01 21.2 C 9.64 g/m*3 21.2 C 0 km/h
727 12-06-2010 01:20:01 21.2 C 9.82 g/m*3 21.2 C 0 km/h
728 12-06-2010 01:32:01 20.8 C 9.78 g/m*3 20.8 C 0 km/h
729 12-06-2010 01:44:01 20.7 C 9.72 g/m*3 20.7 C 0 km/h
730 12-06-2010 01:56:01 20.8 C 9.96 g/m*3 20.8 C 0 km/h
731 12-06-2010 02:08:01 20.5 C 9.79 g/m*3 20.5 C 0 km/h
732 12-06-2010 02:20:02 20.2 C 9.97 g/m*3 20.2 C 0 km/h
733 12-06-2010 02:32:01 20.3 C 10.2 g/m*3 20.3 C 0 km/h
734 12-06-2010 02:44:01 20.1 C 9.91 g/m*3 20.1 C 0 km/h
735 12-06-2010 02:56:03 20.1 C 10.08 g/m*3 20.1 C 0 km/h
736 12-06-2010 03:08:03 20 C 9.85 g/m*3 20 C 0 km/h
737 12-06-2010 03:20:03 19.8 C 10.08 g/m*3 19.8 C 0 km/h
738 12-06-2010 03:32:02 19.7 C 10.19 g/m*3 19.7 C 0 km/h
739 12-06-2010 03:44:02 19.6 C 10.3 g/m*3 19.6 C 0 km/h
740 12-06-2010 03:56:02 19.6 C 10.3 g/m*3 19.6 C 0 km/h
741 12-06-2010 04:08:02 19.4 C 10.18 g/m*3 19.4 C 0 km/h
742 12-06-2010 04:20:01 19.4 C 10.34 g/m*3 19.4 C 0 km/h
743 12-06-2010 04:32:02 19.4 C 10.68 g/m*3 19.4 C 0 km/h
744 12-06-2010 04:44:02 19.3 C 10.62 g/m*3 19.3 C 0 km/h
745 12-06-2010 04:56:02 19.1 C 10.98 g/m*3 19.1 C 0 km/h
746 12-06-2010 05:08:02 18.7 C 11.21 g/m*3 18.7 C 0 km/h
747 12-06-2010 05:20:01 18.8 C 11.27 g/m*3 18.8 C 0 km/h
748 12-06-2010 05:32:02 18.7 C 11.21 g/m*3 18.7 C 0 km/h
749 12-06-2010 05:44:02 18.7 C 11.05 g/m*3 18.7 C 0 km/h
750 12-06-2010 05:56:02 18.7 C 10.89 g/m*3 18.7 C 0 km/h
Sensor: Nr:Datum:Temp:Abs-Feuchte:Windchill:Wind:
Aussen-T/F 751 12-06-2010 06:08:02 18.6 C 10.66 g/m*3 18.6 C 0 km/h
752 12-06-2010 06:20:02 18.7 C 10.89 g/m*3 18.7 C 0 km/h
753 12-06-2010 06:32:02 18.9 C 11.02 g/m*3 18.9 C 0 km/h
754 12-06-2010 06:44:02 18.4 C 11.32 g/m*3 18.4 C 0 km/h
755 12-06-2010 06:56:02 18.3 C 11.88 g/m*3 18.3 C 0 km/h
756 12-06-2010 07:08:02 18.3 C 12.2 g/m*3 18.3 C 0 km/h
757 12-06-2010 07:20:02 18.2 C 11.97 g/m*3 18.2 C 0 km/h
758 12-06-2010 07:32:01 18.5 C 12.18 g/m*3 18.5 C 0 km/h
759 12-06-2010 07:44:01 18.3 C 12.04 g/m*3 18.3 C 0 km/h
760 12-06-2010 07:56:02 18.6 C 12.41 g/m*3 18.6 C 0 km/h
761 12-06-2010 08:08:01 18.6 C 12.41 g/m*3 18.6 C 0 km/h
762 12-06-2010 08:20:02 18.5 C 12.18 g/m*3 18.5 C 0 km/h
763 12-06-2010 08:32:01 18.9 C 12.64 g/m*3 18.9 C 0 km/h
764 12-06-2010 08:44:01 18.6 C 12.41 g/m*3 18.6 C 0 km/h
765 12-06-2010 08:56:02 19.3 C 12.44 g/m*3 19.3 C 0 km/h
766 12-06-2010 09:08:02 19.1 C 12.13 g/m*3 19.1 C 0 km/h
767 12-06-2010 09:20:02 19.1 C 11.97 g/m*3 19.1 C 0 km/h
768 12-06-2010 09:32:02 19 C 11.57 g/m*3 19 C 0 km/h
769 12-06-2010 09:44:02 19.6 C 11.31 g/m*3 19.6 C 0 km/h
770 12-06-2010 09:56:02 19.6 C 10.97 g/m*3 19.6 C 0 km/h
771 12-06-2010 10:08:01 20 C 10.89 g/m*3 20 C 0 km/h
772 12-06-2010 10:20:02 19.6 C 10.3 g/m*3 19.6 C 0 km/h
773 12-06-2010 10:32:02 20.3 C 10.55 g/m*3 20.3 C 0 km/h
774 12-06-2010 10:44:02 20.5 C 10.14 g/m*3 20.5 C 0 km/h
775 12-06-2010 10:56:02 21.3 C 10.25 g/m*3 21.3 C 0 km/h
Sensor: Nr:Datum:Temp:Abs-Feuchte:Windchill:Wind:
Aussen-T/F 776 12-06-2010 11:08:02 21.2 C 10.19 g/m*3 21.2 C 0 km/h
777 12-06-2010 11:20:02 22.1 C 9.96 g/m*3 22.1 C 0 km/h
778 12-06-2010 11:32:02 22.8 C 9.35 g/m*3 22.8 C 0 km/h
779 12-06-2010 11:44:03 23.2 C 9.36 g/m*3 23.2 C 0 km/h
780 12-06-2010 11:56:02 22.9 C 8.99 g/m*3 22.9 C 0 km/h
781 12-06-2010 12:08:01 23 C 8.43 g/m*3 23 C 0 km/h
782 12-06-2010 12:20:01 23.6 C 8.51 g/m*3 23.6 C 0 km/h
783 12-06-2010 12:32:02 23.6 C 8.72 g/m*3 23.6 C 0 km/h
784 12-06-2010 12:44:02 22.9 C 8.99 g/m*3 22.9 C 0 km/h
785 12-06-2010 12:56:02 23.4 C 8.83 g/m*3 23.4 C 0 km/h
786 12-06-2010 13:08:01 25.2 C 8.38 g/m*3 25.2 C 0 km/h
787 12-06-2010 13:20:02 23.8 C 8.82 g/m*3 23.8 C 0 km/h
788 12-06-2010 13:32:02 24.4 C 8.23 g/m*3 24.4 C 0 km/h
789 12-06-2010 13:44:02 23.2 C 8.52 g/m*3 23.2 C 0 km/h
790 12-06-2010 13:56:02 24.2 C 8.36 g/m*3 24.2 C 0 km/h
791 12-06-2010 14:08:01 24.6 C 8.33 g/m*3 24.6 C 0 km/h
792 12-06-2010 14:20:01 24 C 8.27 g/m*3 24 C 0 km/h
793 12-06-2010 14:32:02 23.9 C 8.65 g/m*3 23.9 C 0 km/h
794 12-06-2010 14:44:02 24 C 8.49 g/m*3 24 C 0 km/h
795 12-06-2010 14:56:02 25.9 C 8.47 g/m*3 25.9 C 0 km/h
796 12-06-2010 15:08:02 25.2 C 8.15 g/m*3 25.2 C 0 km/h
797 12-06-2010 15:20:02 24.8 C 8.19 g/m*3 24.8 C 0 km/h
798 12-06-2010 15:32:02 23.9 C 8.87 g/m*3 23.9 C 0 km/h
799 12-06-2010 15:44:02 21.8 C 9.98 g/m*3 21.8 C 0 km/h
800 12-06-2010 15:56:02 19.2 C 10.06 g/m*3 19.2 C 0 km/h
Sensor: Nr:Datum:Temp:Abs-Feuchte:Windchill:Wind:
Aussen-T/F 801 12-06-2010 16:08:03 18.9 C 10.37 g/m*3 18.9 C 0 km/h
802 12-06-2010 16:20:02 17.9 C 9.92 g/m*3 17.9 C 0 km/h
803 12-06-2010 16:32:02 17.4 C 10.37 g/m*3 17.4 C 0 km/h
804 12-06-2010 16:44:02 15.9 C 10.16 g/m*3 15.9 C 0 km/h
805 12-06-2010 16:56:01 15.1 C 10.19 g/m*3 15.1 C 0 km/h
806 12-06-2010 17:08:02 15.2 C 10.51 g/m*3 15.2 C 0 km/h
807 12-06-2010 17:20:01 14.2 C 9.65 g/m*3 14.2 C 0 km/h
808 12-06-2010 17:32:01 13.7 C 9.47 g/m*3 13.7 C 0 km/h
809 12-06-2010 17:44:01 13.6 C 9.53 g/m*3 13.6 C 0 km/h
810 12-06-2010 17:56:01 14.4 C 10.14 g/m*3 14.4 C 0 km/h
811 12-06-2010 18:08:02 14.7 C 10.32 g/m*3 14.7 C 0 km/h
812 12-06-2010 18:20:02 14.6 C 10.01 g/m*3 14.6 C 0 km/h
813 12-06-2010 18:32:01 14.8 C 10.26 g/m*3 14.8 C 0 km/h
814 12-06-2010 18:44:01 14.4 C 9.89 g/m*3 14.4 C 0 km/h
815 12-06-2010 18:56:01 14.6 C 10.14 g/m*3 14.6 C 0 km/h
816 12-06-2010 19:08:01 14.6 C 9.89 g/m*3 14.6 C 0 km/h
817 12-06-2010 19:20:02 14.4 C 9.64 g/m*3 14.4 C 0 km/h
818 12-06-2010 19:32:01 14.7 C 9.69 g/m*3 14.7 C 0 km/h
819 12-06-2010 19:44:01 15 C 9.75 g/m*3 15 C 0 km/h
820 12-06-2010 19:56:02 15.4 C 9.99 g/m*3 15.4 C 0 km/h
821 12-06-2010 20:08:01 15.3 C 9.66 g/m*3 15.3 C 0 km/h
822 12-06-2010 20:20:02 15.3 C 9.53 g/m*3 15.3 C 0 km/h
823 12-06-2010 20:32:01 15.3 C 9.53 g/m*3 15.3 C 0 km/h
824 12-06-2010 20:44:01 15.4 C 9.46 g/m*3 15.4 C 0 km/h
825 12-06-2010 20:56:02 15.4 C 9.46 g/m*3 15.4 C 0 km/h
Sensor: Nr:Datum:Temp:Abs-Feuchte:Windchill:Wind:
Aussen-T/F 826 12-06-2010 21:08:02 15.2 C 9.35 g/m*3 15.2 C 0 km/h
827 12-06-2010 21:20:02 15.1 C 9.29 g/m*3 15.1 C 0 km/h
828 12-06-2010 21:32:02 15 C 9.36 g/m*3 15 C 0 km/h
829 12-06-2010 21:44:02 14.9 C 9.56 g/m*3 14.9 C 0 km/h
830 12-06-2010 21:56:02 14.7 C 9.44 g/m*3 14.7 C 0 km/h
831 12-06-2010 22:08:01 14.7 C 9.44 g/m*3 14.7 C 0 km/h
832 12-06-2010 22:20:02 14.7 C 9.57 g/m*3 14.7 C 0 km/h
833 12-06-2010 22:32:01 14.6 C 9.51 g/m*3 14.6 C 0 km/h
834 12-06-2010 22:44:01 14.4 C 9.39 g/m*3 14.4 C 0 km/h
835 12-06-2010 22:56:02 14.1 C 9.22 g/m*3 14.1 C 0 km/h
836 12-06-2010 23:09:03 13.6 C 9.06 g/m*3 13.6 C 0 km/h
837 12-06-2010 23:21:03 13.4 C 9.07 g/m*3 13.4 C 0 km/h
838 12-06-2010 23:33:03 13.2 C 8.96 g/m*3 13.2 C 0 km/h
839 12-06-2010 23:45:03 13.2 C 8.96 g/m*3 13.2 C 0 km/h
840 12-06-2010 23:57:03 13 C 8.85 g/m*3 13 C 0 km/h
841 13-06-2010 00:09:03 12.8 C 8.85 g/m*3 12.8 C 0 km/h
842 13-06-2010 00:21:03 12.6 C 8.85 g/m*3 12.6 C 0 km/h
843 13-06-2010 00:33:03 12.6 C 8.85 g/m*3 12.6 C 0 km/h
844 13-06-2010 00:45:03 12.6 C 8.96 g/m*3 12.6 C 0 km/h
845 13-06-2010 00:57:03 12.8 C 9.07 g/m*3 12.8 C 0 km/h
846 13-06-2010 01:09:03 13.1 C 9.24 g/m*3 13.1 C 0 km/h
847 13-06-2010 01:21:03 13.3 C 9.47 g/m*3 13.3 C 0 km/h
848 13-06-2010 01:33:03 13.4 C 9.53 g/m*3 13.4 C 0 km/h
849 13-06-2010 01:45:04 13.4 C 9.42 g/m*3 13.4 C 0 km/h
850 13-06-2010 01:57:04 13.3 C 9.36 g/m*3 13.3 C 0 km/h
Sensor: Nr:Datum:Temp:Abs-Feuchte:Windchill:Wind:
Aussen-T/F 851 13-06-2010 02:09:04 13.5 C 9.59 g/m*3 13.5 C 0 km/h
852 13-06-2010 02:21:04 13.3 C 9.47 g/m*3 13.3 C 0 km/h
853 13-06-2010 02:33:04 13.2 C 9.42 g/m*3 13.2 C 0 km/h
854 13-06-2010 02:45:04 13 C 9.41 g/m*3 13 C 0 km/h
855 13-06-2010 02:57:04 12.7 C 9.46 g/m*3 12.7 C 0 km/h
856 13-06-2010 03:09:04 12.5 C 9.46 g/m*3 12.5 C 0 km/h
857 13-06-2010 03:21:04 12.4 C 9.4 g/m*3 12.4 C 0 km/h
858 13-06-2010 03:33:04 12.2 C 9.28 g/m*3 12.2 C 0 km/h
859 13-06-2010 03:45:04 11.9 C 9.21 g/m*3 11.9 C 0 km/h
860 13-06-2010 03:57:04 11.8 C 9.16 g/m*3 11.8 C 0 km/h
861 13-06-2010 04:09:04 11.5 C 8.99 g/m*3 11.5 C 0 km/h
862 13-06-2010 04:21:04 11.4 C 8.83 g/m*3 11.4 C 0 km/h
863 13-06-2010 04:33:04 11.4 C 8.72 g/m*3 11.4 C 0 km/h
864 13-06-2010 04:45:04 11.2 C 8.51 g/m*3 11.2 C 0 km/h
865 13-06-2010 04:57:04 11.1 C 8.46 g/m*3 11.1 C 0 km/h
866 13-06-2010 05:09:04 11 C 8.51 g/m*3 11 C 0 km/h
867 13-06-2010 05:21:04 11 C 8.41 g/m*3 11 C 0 km/h
868 13-06-2010 05:33:04 10.8 C 8.3 g/m*3 10.8 C 0 km/h
869 13-06-2010 05:45:04 10.7 C 8.25 g/m*3 10.7 C 0 km/h
870 13-06-2010 05:57:04 10.6 C 8.2 g/m*3 10.6 C 0 km/h
871 13-06-2010 06:09:05 10.5 C 8.15 g/m*3 10.5 C 0 km/h
872 13-06-2010 06:21:05 10.5 C 8.24 g/m*3 10.5 C 0 km/h
873 13-06-2010 06:33:05 10.5 C 8.24 g/m*3 10.5 C 0 km/h
874 13-06-2010 06:45:05 10.5 C 8.24 g/m*3 10.5 C 0 km/h
875 13-06-2010 06:57:05 10.5 C 8.24 g/m*3 10.5 C 0 km/h
Sensor: Nr:Datum:Temp:Abs-Feuchte:Windchill:Wind:
Aussen-T/F 876 13-06-2010 07:09:05 10.7 C 8.45 g/m*3 10.7 C 0 km/h
877 13-06-2010 07:21:05 11 C 8.61 g/m*3 11 C 0 km/h
878 13-06-2010 07:33:05 11.4 C 8.72 g/m*3 11.4 C 0 km/h
879 13-06-2010 07:45:02 11.7 C 8.79 g/m*3 11.7 C 0 km/h
880 13-06-2010 07:57:02 12.1 C 8.69 g/m*3 12.1 C 0 km/h
881 13-06-2010 08:09:02 12.6 C 8.63 g/m*3 12.6 C 0 km/h
882 13-06-2010 08:21:02 12.8 C 8.29 g/m*3 12.8 C 0 km/h
883 13-06-2010 08:33:02 13.2 C 7.92 g/m*3 13.2 C 0 km/h
884 13-06-2010 08:45:02 13.5 C 7.95 g/m*3 13.5 C 0 km/h
885 13-06-2010 08:57:02 13.7 C 8.05 g/m*3 13.7 C 0 km/h
886 13-06-2010 09:09:01 14.1 C 8.01 g/m*3 14.1 C 0 km/h
887 13-06-2010 09:21:02 15 C 7.95 g/m*3 15 C 0 km/h
888 13-06-2010 09:33:02 15.7 C 7.76 g/m*3 15.7 C 0 km/h
889 13-06-2010 09:45:02 16.7 C 7.39 g/m*3 16.7 C 0 km/h
890 13-06-2010 09:57:02 17.7 C 6.79 g/m*3 17.7 C 0 km/h
891 13-06-2010 10:09:02 18.9 C 6.48 g/m*3 18.9 C 0 km/h
892 13-06-2010 10:21:02 19.5 C 6.38 g/m*3 19.5 C 0 km/h
893 13-06-2010 10:33:02 16.8 C 6.43 g/m*3 16.8 C 0 km/h
894 13-06-2010 10:45:02 16.2 C 5.79 g/m*3 16.2 C 0 km/h
895 13-06-2010 10:57:02 17.4 C 6.37 g/m*3 17.4 C 0 km/h
896 13-06-2010 11:09:02 18.5 C 5.85 g/m*3 18.5 C 0 km/h
897 13-06-2010 11:21:02 19 C 5.87 g/m*3 19 C 0 km/h
898 13-06-2010 11:33:02 19.5 C 6.04 g/m*3 19.5 C 0 km/h
899 13-06-2010 11:45:02 19.8 C 5.64 g/m*3 19.8 C 0 km/h
900 13-06-2010 11:57:02 20.9 C 6.19 g/m*3 20.9 C 0 km/h
Sensor: Nr:Datum:Temp:Abs-Feuchte:Windchill:Wind:
Aussen-T/F 901 13-06-2010 12:09:02 21.3 C 5.59 g/m*3 21.3 C 0 km/h
902 13-06-2010 12:21:02 22.4 C 5.36 g/m*3 22.4 C 0 km/h
903 13-06-2010 12:33:02 23.8 C 5.38 g/m*3 23.8 C 0 km/h
904 13-06-2010 12:45:02 23.1 C 5.17 g/m*3 23.1 C 0 km/h
905 13-06-2010 12:57:02 23.6 C 4.89 g/m*3 23.6 C 0 km/h
906 13-06-2010 13:09:02 23.4 C 5.47 g/m*3 23.4 C 0 km/h
907 13-06-2010 13:21:02 24.9 C 4.81 g/m*3 24.9 C 0 km/h
908 13-06-2010 13:33:02 25.4 C 4.71 g/m*3 25.4 C 0 km/h
909 13-06-2010 13:45:02 25.1 C 4.63 g/m*3 25.1 C 0 km/h
910 13-06-2010 13:57:02 25.2 C 4.66 g/m*3 25.2 C 0 km/h
911 13-06-2010 14:09:02 24.8 C 4.78 g/m*3 24.8 C 0 km/h
912 13-06-2010 14:21:02 24.8 C 5.01 g/m*3 24.8 C 0 km/h
913 13-06-2010 14:33:01 23.9 C 4.98 g/m*3 23.9 C 0 km/h
914 13-06-2010 14:45:02 22.6 C 4.62 g/m*3 22.6 C 0 km/h
915 13-06-2010 14:57:02 24.5 C 5.15 g/m*3 24.5 C 0 km/h
916 13-06-2010 15:09:01 25.1 C 5.32 g/m*3 25.1 C 0 km/h
917 13-06-2010 15:21:02 25.8 C 5.06 g/m*3 25.8 C 0 km/h
918 13-06-2010 15:33:01 24.1 C 4.38 g/m*3 24.1 C 0 km/h
919 13-06-2010 15:45:02 24.3 C 4.43 g/m*3 24.3 C 0 km/h
920 13-06-2010 15:57:02 23.8 C 4.3 g/m*3 23.8 C 0 km/h
921 13-06-2010 16:09:02 24.3 C 4.43 g/m*3 24.3 C 0 km/h
922 13-06-2010 16:21:02 24.6 C 4.5 g/m*3 24.6 C 0 km/h
923 13-06-2010 16:33:02 24.2 C 4.4 g/m*3 24.2 C 0 km/h
924 13-06-2010 16:45:02 26 C 4.87 g/m*3 26 C 0 km/h
925 13-06-2010 16:57:02 26 C 4.87 g/m*3 26 C 0 km/h
Sensor: Nr:Datum:Temp:Abs-Feuchte:Windchill:Wind:
Aussen-T/F 926 13-06-2010 17:09:01 26.1 C 4.9 g/m*3 26.1 C 0 km/h
927 13-06-2010 17:21:02 26.3 C 4.95 g/m*3 26.3 C 0 km/h
928 13-06-2010 17:33:02 26 C 4.87 g/m*3 26 C 0 km/h
929 13-06-2010 17:45:02 26.5 C 5.01 g/m*3 26.5 C 0 km/h
930 13-06-2010 17:57:02 25.4 C 4.71 g/m*3 25.4 C 0 km/h
931 13-06-2010 18:09:02 26.5 C 5.01 g/m*3 26.5 C 0 km/h
932 13-06-2010 18:21:02 27.1 C 5.18 g/m*3 27.1 C 0 km/h
933 13-06-2010 18:33:02 25.8 C 4.82 g/m*3 25.8 C 0 km/h
934 13-06-2010 18:45:01 26.5 C 5.01 g/m*3 26.5 C 0 km/h
935 13-06-2010 18:57:01 26.3 C 4.95 g/m*3 26.3 C 0 km/h
936 13-06-2010 19:09:02 26.3 C 4.95 g/m*3 26.3 C 0 km/h
937 13-06-2010 19:21:01 25.9 C 4.84 g/m*3 25.9 C 0 km/h
938 13-06-2010 19:33:01 25.4 C 4.71 g/m*3 25.4 C 0 km/h
939 13-06-2010 19:45:01 24.1 C 4.38 g/m*3 24.1 C 0 km/h
940 13-06-2010 19:57:01 23.6 C 5.32 g/m*3 23.6 C 0 km/h
941 13-06-2010 20:09:02 24.1 C 4.81 g/m*3 24.1 C 0 km/h
942 13-06-2010 20:21:01 24.7 C 5.21 g/m*3 24.7 C 0 km/h
943 13-06-2010 20:33:01 24.5 C 4.92 g/m*3 24.5 C 0 km/h
944 13-06-2010 20:45:01 23.4 C 5.05 g/m*3 23.4 C 0 km/h
945 13-06-2010 20:57:01 22.8 C 6.1 g/m*3 22.8 C 0 km/h
946 13-06-2010 21:09:02 21.8 C 6.33 g/m*3 21.8 C 0 km/h
947 13-06-2010 21:21:01 20.6 C 6.44 g/m*3 20.6 C 0 km/h
948 13-06-2010 21:33:01 19.3 C 6.3 g/m*3 19.3 C 0 km/h
949 13-06-2010 21:45:02 18.6 C 6.37 g/m*3 18.6 C 0 km/h
950 13-06-2010 21:57:02 17.9 C 6.26 g/m*3 17.9 C 0 km/h
Sensor: Nr:Datum:Temp:Abs-Feuchte:Windchill:Wind:
Aussen-T/F 951 13-06-2010 22:09:02 18.1 C 6.33 g/m*3 18.1 C 0 km/h
952 13-06-2010 22:21:02 18.1 C 6.18 g/m*3 18.1 C 0 km/h
953 13-06-2010 22:34:02 17.7 C 6.49 g/m*3 17.7 C 0 km/h
954 13-06-2010 22:46:02 17.3 C 6.63 g/m*3 17.3 C 0 km/h
955 13-06-2010 22:58:02 17 C 6.66 g/m*3 17 C 0 km/h
956 13-06-2010 23:10:02 16.7 C 6.68 g/m*3 16.7 C 0 km/h
957 13-06-2010 23:22:02 16.6 C 6.92 g/m*3 16.6 C 0 km/h
958 13-06-2010 23:34:02 16.2 C 6.9 g/m*3 16.2 C 0 km/h
959 13-06-2010 23:46:02 16 C 7.08 g/m*3 16 C 0 km/h
960 13-06-2010 23:58:02 15.9 C 7.04 g/m*3 15.9 C 0 km/h
961 14-06-2010 00:10:02 15.7 C 7.36 g/m*3 15.7 C 0 km/h
962 14-06-2010 00:22:02 15.4 C 7.49 g/m*3 15.4 C 0 km/h
963 14-06-2010 00:34:02 15.4 C 7.49 g/m*3 15.4 C 0 km/h
964 14-06-2010 00:46:02 15.4 C 7.62 g/m*3 15.4 C 0 km/h
965 14-06-2010 00:58:02 15.3 C 7.44 g/m*3 15.3 C 0 km/h
966 14-06-2010 01:10:02 14.9 C 7.52 g/m*3 14.9 C 0 km/h
967 14-06-2010 01:22:02 14.8 C 7.35 g/m*3 14.8 C 0 km/h
968 14-06-2010 01:34:02 14.5 C 7.34 g/m*3 14.5 C 0 km/h
969 14-06-2010 01:46:02 14.3 C 7.25 g/m*3 14.3 C 0 km/h
970 14-06-2010 01:58:02 14.1 C 7.4 g/m*3 14.1 C 0 km/h
971 14-06-2010 02:10:02 13.9 C 7.67 g/m*3 13.9 C 0 km/h
972 14-06-2010 02:22:03 13.4 C 7.44 g/m*3 13.4 C 0 km/h
973 14-06-2010 02:34:03 13.5 C 7.72 g/m*3 13.5 C 0 km/h
974 14-06-2010 02:46:03 13.3 C 7.74 g/m*3 13.3 C 0 km/h
975 14-06-2010 02:58:03 13.2 C 7.81 g/m*3 13.2 C 0 km/h
Sensor: Nr:Datum:Temp:Abs-Feuchte:Windchill:Wind:
Aussen-T/F 976 14-06-2010 03:10:03 13 C 7.83 g/m*3 13 C 0 km/h
977 14-06-2010 03:22:03 12.9 C 7.89 g/m*3 12.9 C 0 km/h
978 14-06-2010 03:34:03 12.7 C 7.9 g/m*3 12.7 C 0 km/h
979 14-06-2010 03:46:03 12.5 C 7.81 g/m*3 12.5 C 0 km/h
980 14-06-2010 03:58:03 12.2 C 7.88 g/m*3 12.2 C 0 km/h
981 14-06-2010 04:10:03 12.2 C 7.88 g/m*3 12.2 C 0 km/h
982 14-06-2010 04:22:03 12.1 C 7.94 g/m*3 12.1 C 0 km/h
983 14-06-2010 04:34:03 11.9 C 7.84 g/m*3 11.9 C 0 km/h
984 14-06-2010 04:46:03 11.9 C 7.84 g/m*3 11.9 C 0 km/h
985 14-06-2010 04:58:03 11.8 C 7.79 g/m*3 11.8 C 0 km/h
986 14-06-2010 05:10:03 11.8 C 7.79 g/m*3 11.8 C 0 km/h
987 14-06-2010 05:22:03 11.6 C 7.69 g/m*3 11.6 C 0 km/h
988 14-06-2010 05:34:03 11.4 C 7.6 g/m*3 11.4 C 0 km/h
989 14-06-2010 05:46:03 11.3 C 7.55 g/m*3 11.3 C 0 km/h
990 14-06-2010 05:58:03 11.3 C 7.65 g/m*3 11.3 C 0 km/h
991 14-06-2010 06:10:03 11.3 C 7.75 g/m*3 11.3 C 0 km/h
992 14-06-2010 06:22:03 11.2 C 7.7 g/m*3 11.2 C 0 km/h
993 14-06-2010 06:34:03 11.3 C 7.85 g/m*3 11.3 C 0 km/h
994 14-06-2010 06:46:03 11.4 C 7.9 g/m*3 11.4 C 0 km/h
995 14-06-2010 06:58:04 11.2 C 7.91 g/m*3 11.2 C 0 km/h
996 14-06-2010 07:10:01 11.2 C 8.01 g/m*3 11.2 C 0 km/h
997 14-06-2010 07:22:02 11.5 C 8.26 g/m*3 11.5 C 0 km/h
998 14-06-2010 07:34:01 11.7 C 8.26 g/m*3 11.7 C 0 km/h
999 14-06-2010 07:46:01 11.9 C 8.26 g/m*3 11.9 C 0 km/h
1000 14-06-2010 07:58:01 12.2 C 8.31 g/m*3 12.2 C 0 km/h
Sensor: Nr:Datum:Temp:Abs-Feuchte:Windchill:Wind:
Aussen-T/F 1001 14-06-2010 08:10:02 12.5 C 8.36 g/m*3 12.5 C 0 km/h
1002 14-06-2010 08:22:02 12.9 C 8.34 g/m*3 12.9 C 0 km/h
1003 14-06-2010 08:34:01 13.2 C 8.38 g/m*3 13.2 C 0 km/h
1004 14-06-2010 08:46:02 13.8 C 8.46 g/m*3 13.8 C 0 km/h
1005 14-06-2010 08:58:02 14.5 C 8.58 g/m*3 14.5 C 0 km/h
1006 14-06-2010 09:10:01 15 C 8.33 g/m*3 15 C 0 km/h
1007 14-06-2010 09:22:02 15.9 C 8.4 g/m*3 15.9 C 0 km/h
1008 14-06-2010 09:34:01 17 C 7.96 g/m*3 17 C 0 km/h
1009 14-06-2010 09:46:03 17.8 C 7.74 g/m*3 17.8 C 0 km/h
1010 14-06-2010 09:58:03 18.4 C 7.55 g/m*3 18.4 C 0 km/h
1011 14-06-2010 10:10:02 18.8 C 7.57 g/m*3 18.8 C 0 km/h
1012 14-06-2010 10:22:02 19.5 C 7.55 g/m*3 19.5 C 0 km/h
1013 14-06-2010 10:34:02 20.3 C 7.39 g/m*3 20.3 C 0 km/h
1014 14-06-2010 10:46:02 20.4 C 7.08 g/m*3 20.4 C 0 km/h
1015 14-06-2010 10:58:02 20.8 C 7.06 g/m*3 20.8 C 0 km/h
1016 14-06-2010 11:10:01 21.5 C 6.98 g/m*3 21.5 C 0 km/h
1017 14-06-2010 11:22:02 22.3 C 7.11 g/m*3 22.3 C 0 km/h
1018 14-06-2010 11:34:02 23.1 C 6.61 g/m*3 23.1 C 0 km/h
1019 14-06-2010 11:46:02 23.6 C 6.17 g/m*3 23.6 C 0 km/h
1020 14-06-2010 11:58:02 24.1 C 5.47 g/m*3 24.1 C 0 km/h
1021 14-06-2010 12:10:02 24.5 C 5.82 g/m*3 24.5 C 0 km/h
1022 14-06-2010 12:22:02 24.6 C 5.63 g/m*3 24.6 C 0 km/h
1023 14-06-2010 12:34:02 23.9 C 5.41 g/m*3 23.9 C 0 km/h
1024 14-06-2010 12:46:02 25.7 C 5.51 g/m*3 25.7 C 0 km/h
1025 14-06-2010 12:58:02 27.2 C 5.2 g/m*3 27.2 C 0 km/h
Sensor: Nr:Datum:Temp:Abs-Feuchte:Windchill:Wind:
Aussen-T/F 1026 14-06-2010 13:10:02 26.5 C 5.01 g/m*3 26.5 C 0 km/h
1027 14-06-2010 13:22:01 23.9 C 5.41 g/m*3 23.9 C 0 km/h
1028 14-06-2010 13:34:02 27.8 C 5.38 g/m*3 27.8 C 0 km/h
1029 14-06-2010 13:46:02 27.1 C 5.18 g/m*3 27.1 C 0 km/h
1030 14-06-2010 13:58:02 26.4 C 4.98 g/m*3 26.4 C 0 km/h
1031 14-06-2010 14:10:02 27.4 C 5.26 g/m*3 27.4 C 0 km/h
1032 14-06-2010 14:22:01 28 C 5.44 g/m*3 28 C 0 km/h
1033 14-06-2010 14:34:02 27.8 C 5.38 g/m*3 27.8 C 0 km/h
1034 14-06-2010 14:46:02 27 C 5.15 g/m*3 27 C 0 km/h
1035 14-06-2010 14:58:02 27 C 5.15 g/m*3 27 C 0 km/h
1036 14-06-2010 15:10:02 26.3 C 5.45 g/m*3 26.3 C 0 km/h
1037 14-06-2010 15:22:02 25.6 C 5.24 g/m*3 25.6 C 0 km/h
1038 14-06-2010 15:34:02 26.7 C 5.06 g/m*3 26.7 C 0 km/h
1039 14-06-2010 15:46:02 28 C 5.44 g/m*3 28 C 0 km/h
1040 14-06-2010 15:58:02 27.9 C 5.41 g/m*3 27.9 C 0 km/h
1041 14-06-2010 16:10:02 29.1 C 5.78 g/m*3 29.1 C 0 km/h
1042 14-06-2010 16:22:02 29.1 C 5.78 g/m*3 29.1 C 0 km/h
1043 14-06-2010 16:34:02 29.8 C 6 g/m*3 29.8 C 0 km/h
1044 14-06-2010 16:46:01 30.2 C 6.13 g/m*3 30.2 C 0 km/h
1045 14-06-2010 16:58:01 30.9 C 6.37 g/m*3 30.9 C 0 km/h
1046 14-06-2010 17:10:02 30 C 6.06 g/m*3 30 C 0 km/h
1047 14-06-2010 17:22:02 28.7 C 5.65 g/m*3 28.7 C 0 km/h
1048 14-06-2010 17:34:02 29.7 C 5.97 g/m*3 29.7 C 0 km/h
1049 14-06-2010 17:46:02 29 C 5.74 g/m*3 29 C 0 km/h
1050 14-06-2010 17:58:02 28.3 C 5.53 g/m*3 28.3 C 0 km/h
Sensor: Nr:Datum:Temp:Abs-Feuchte:Windchill:Wind:
Aussen-T/F 1051 14-06-2010 18:10:02 27.7 C 5.35 g/m*3 27.7 C 0 km/h
1052 14-06-2010 18:22:02 29.4 C 5.87 g/m*3 29.4 C 0 km/h
1053 14-06-2010 18:34:01 29.5 C 5.9 g/m*3 29.5 C 0 km/h
1054 14-06-2010 18:46:02 28.6 C 5.62 g/m*3 28.6 C 0 km/h
1055 14-06-2010 18:58:02 27.2 C 5.2 g/m*3 27.2 C 0 km/h
1056 14-06-2010 19:10:01 25.7 C 5.75 g/m*3 25.7 C 0 km/h
1057 14-06-2010 19:22:01 24.7 C 6.11 g/m*3 24.7 C 0 km/h
1058 14-06-2010 19:34:01 24.4 C 6.68 g/m*3 24.4 C 0 km/h
1059 14-06-2010 19:46:02 25.5 C 6.39 g/m*3 25.5 C 0 km/h
1060 14-06-2010 19:58:02 25.7 C 6.46 g/m*3 25.7 C 0 km/h
1061 14-06-2010 20:10:02 25.3 C 6.32 g/m*3 25.3 C 0 km/h
1062 14-06-2010 20:22:02 24.2 C 6.6 g/m*3 24.2 C 0 km/h
1063 14-06-2010 20:34:02 22.9 C 6.54 g/m*3 22.9 C 0 km/h
1064 14-06-2010 20:46:01 22.2 C 6.09 g/m*3 22.2 C 0 km/h
1065 14-06-2010 20:58:01 21.7 C 6.1 g/m*3 21.7 C 0 km/h
1066 14-06-2010 21:10:02 21.1 C 6.08 g/m*3 21.1 C 0 km/h
1067 14-06-2010 21:22:01 20.4 C 6.19 g/m*3 20.4 C 0 km/h
1068 14-06-2010 21:34:02 20 C 6.22 g/m*3 20 C 0 km/h
1069 14-06-2010 21:46:02 19.6 C 6.08 g/m*3 19.6 C 0 km/h
1070 14-06-2010 21:58:02 19.2 C 6.1 g/m*3 19.2 C 0 km/h
1071 14-06-2010 22:10:02 18.9 C 6.32 g/m*3 18.9 C 0 km/h
1072 14-06-2010 22:22:02 18.7 C 6.72 g/m*3 18.7 C 0 km/h
1073 14-06-2010 22:34:01 18.6 C 7.64 g/m*3 18.6 C 0 km/h
1074 14-06-2010 22:46:02 18.5 C 8.07 g/m*3 18.5 C 0 km/h
1075 14-06-2010 22:58:02 18.4 C 8.34 g/m*3 18.4 C 0 km/h
Sensor: Nr:Datum:Temp:Abs-Feuchte:Windchill:Wind:
Aussen-T/F 1076 14-06-2010 23:10:01 18.2 C 8.39 g/m*3 18.2 C 0 km/h
1077 14-06-2010 23:22:01 18.4 C 8.65 g/m*3 18.4 C 0 km/h
1078 14-06-2010 23:34:02 18.4 C 8.49 g/m*3 18.4 C 0 km/h
1079 14-06-2010 23:46:02 18.5 C 8.7 g/m*3 18.5 C 0 km/h
1080 14-06-2010 23:58:02 18.3 C 8.6 g/m*3 18.3 C 0 km/h
1081 15-06-2010 00:10:01 17.7 C 8.6 g/m*3 17.7 C 0 km/h
1082 15-06-2010 00:22:02 17.2 C 8.64 g/m*3 17.2 C 0 km/h
1083 15-06-2010 00:34:02 17.1 C 8.88 g/m*3 17.1 C 0 km/h
1084 15-06-2010 00:46:02 16.8 C 8.72 g/m*3 16.8 C 0 km/h
1085 15-06-2010 00:58:02 16.6 C 8.76 g/m*3 16.6 C 0 km/h
1086 15-06-2010 01:10:02 16.4 C 8.93 g/m*3 16.4 C 0 km/h
1087 15-06-2010 01:22:02 16.3 C 9.02 g/m*3 16.3 C 0 km/h
1088 15-06-2010 01:34:01 16 C 8.99 g/m*3 16 C 0 km/h
1089 15-06-2010 01:46:02 15.8 C 9.02 g/m*3 15.8 C 0 km/h
1090 15-06-2010 01:58:02 15.6 C 9.18 g/m*3 15.6 C 0 km/h
1091 15-06-2010 02:10:01 15.5 C 9.25 g/m*3 15.5 C 0 km/h
1092 15-06-2010 02:22:01 15.4 C 9.2 g/m*3 15.4 C 0 km/h
1093 15-06-2010 02:34:02 15.3 C 9.14 g/m*3 15.3 C 0 km/h
1094 15-06-2010 02:47:04 15.1 C 9.16 g/m*3 15.1 C 0 km/h
1095 15-06-2010 02:59:04 15 C 9.36 g/m*3 15 C 0 km/h
1096 15-06-2010 03:11:03 14.9 C 9.43 g/m*3 14.9 C 0 km/h
1097 15-06-2010 03:23:03 14.8 C 9.5 g/m*3 14.8 C 0 km/h
1098 15-06-2010 03:35:02 14.6 C 9.26 g/m*3 14.6 C 0 km/h
1099 15-06-2010 03:47:02 14.6 C 9.26 g/m*3 14.6 C 0 km/h
1100 15-06-2010 03:59:02 14.3 C 9.09 g/m*3 14.3 C 0 km/h
Sensor: Nr:Datum:Temp:Abs-Feuchte:Windchill:Wind:
Aussen-T/F 1101 15-06-2010 04:11:02 14.2 C 9.16 g/m*3 14.2 C 0 km/h
1102 15-06-2010 04:23:02 13.9 C 9.23 g/m*3 13.9 C 0 km/h
1103 15-06-2010 04:35:01 13.7 C 9.12 g/m*3 13.7 C 0 km/h
1104 15-06-2010 04:47:02 13.5 C 9.12 g/m*3 13.5 C 0 km/h
1105 15-06-2010 04:59:02 13.5 C 9.24 g/m*3 13.5 C 0 km/h
1106 15-06-2010 05:11:01 13.5 C 9.24 g/m*3 13.5 C 0 km/h
1107 15-06-2010 05:23:01 13.5 C 9.36 g/m*3 13.5 C 0 km/h
1108 15-06-2010 05:35:02 13.5 C 9.36 g/m*3 13.5 C 0 km/h
1109 15-06-2010 05:47:02 13.4 C 9.3 g/m*3 13.4 C 0 km/h
1110 15-06-2010 05:59:03 13.5 C 9.36 g/m*3 13.5 C 0 km/h
1111 15-06-2010 06:11:01 13.6 C 9.42 g/m*3 13.6 C 0 km/h
1112 15-06-2010 06:23:02 13.5 C 9.36 g/m*3 13.5 C 0 km/h
1113 15-06-2010 06:35:02 13.5 C 9.36 g/m*3 13.5 C 0 km/h
1114 15-06-2010 06:47:01 13.5 C 9.47 g/m*3 13.5 C 0 km/h
1115 15-06-2010 06:59:01 13.8 C 9.65 g/m*3 13.8 C 0 km/h
1116 15-06-2010 07:11:01 14 C 9.77 g/m*3 14 C 0 km/h
1117 15-06-2010 07:23:01 14.4 C 9.89 g/m*3 14.4 C 0 km/h
1118 15-06-2010 07:35:02 14.9 C 9.94 g/m*3 14.9 C 0 km/h
1119 15-06-2010 07:47:02 15.4 C 9.72 g/m*3 15.4 C 0 km/h
1120 15-06-2010 07:59:02 15.9 C 9.75 g/m*3 15.9 C 0 km/h
1121 15-06-2010 08:11:01 16.3 C 9.57 g/m*3 16.3 C 0 km/h
1122 15-06-2010 08:23:02 16.7 C 9.52 g/m*3 16.7 C 0 km/h
1123 15-06-2010 08:35:01 16.5 C 8.85 g/m*3 16.5 C 0 km/h
1124 15-06-2010 08:47:02 16.8 C 8.86 g/m*3 16.8 C 0 km/h
1125 15-06-2010 08:59:02 17.1 C 8.73 g/m*3 17.1 C 0 km/h
Sensor: Nr:Datum:Temp:Abs-Feuchte:Windchill:Wind:
Aussen-T/F 1126 15-06-2010 09:11:01 17.1 C 8.44 g/m*3 17.1 C 0 km/h
1127 15-06-2010 09:23:01 17.2 C 8.35 g/m*3 17.2 C 0 km/h
1128 15-06-2010 09:35:02 17.8 C 8.5 g/m*3 17.8 C 0 km/h
1129 15-06-2010 09:47:02 17.9 C 8.4 g/m*3 17.9 C 0 km/h
1130 15-06-2010 09:59:02 18.5 C 8.07 g/m*3 18.5 C 0 km/h
1131 15-06-2010 10:11:01 19 C 8.15 g/m*3 19 C 0 km/h
1132 15-06-2010 10:23:01 20 C 7.78 g/m*3 20 C 0 km/h
1133 15-06-2010 10:35:02 20 C 7.95 g/m*3 20 C 0 km/h
1134 15-06-2010 10:47:02 19.9 C 7.9 g/m*3 19.9 C 0 km/h
1135 15-06-2010 10:59:02 19.7 C 7.98 g/m*3 19.7 C 0 km/h
1136 15-06-2010 11:11:02 20.3 C 7.91 g/m*3 20.3 C 0 km/h
1137 15-06-2010 11:23:02 20.9 C 8.01 g/m*3 20.9 C 0 km/h
1138 15-06-2010 11:35:02 20.4 C 7.78 g/m*3 20.4 C 0 km/h
1139 15-06-2010 11:47:02 21.3 C 8.2 g/m*3 21.3 C 0 km/h
1140 15-06-2010 11:59:02 20.6 C 8.23 g/m*3 20.6 C 0 km/h
1141 15-06-2010 12:11:02 21.1 C 8.29 g/m*3 21.1 C 0 km/h
1142 15-06-2010 12:23:02 21.2 C 8.15 g/m*3 21.2 C 0 km/h
1143 15-06-2010 12:35:02 21.2 C 8.15 g/m*3 21.2 C 0 km/h
1144 15-06-2010 12:47:02 21.6 C 8.16 g/m*3 21.6 C 0 km/h
1145 15-06-2010 12:59:02 21.2 C 8.15 g/m*3 21.2 C 0 km/h
1146 15-06-2010 13:11:02 20.8 C 8.15 g/m*3 20.8 C 0 km/h
1147 15-06-2010 13:23:02 21.3 C 7.83 g/m*3 21.3 C 0 km/h
1148 15-06-2010 13:35:02 21 C 7.69 g/m*3 21 C 0 km/h
1149 15-06-2010 13:47:02 21.6 C 7.78 g/m*3 21.6 C 0 km/h
1150 15-06-2010 13:59:02 23.1 C 7.03 g/m*3 23.1 C 0 km/h
Sensor: Nr:Datum:Temp:Abs-Feuchte:Windchill:Wind:
Aussen-T/F 1151 15-06-2010 14:11:02 22.1 C 6.83 g/m*3 22.1 C 0 km/h
1152 15-06-2010 14:23:02 21.9 C 6.95 g/m*3 21.9 C 0 km/h
1153 15-06-2010 14:35:02 21.6 C 7.02 g/m*3 21.6 C 0 km/h
1154 15-06-2010 14:47:02 23 C 6.78 g/m*3 23 C 0 km/h
1155 15-06-2010 14:59:02 23.9 C 6.71 g/m*3 23.9 C 0 km/h
1156 15-06-2010 15:11:02 24.1 C 5.91 g/m*3 24.1 C 0 km/h
1157 15-06-2010 15:23:03 23.7 C 5.78 g/m*3 23.7 C 0 km/h
1158 15-06-2010 15:35:02 23.9 C 6.06 g/m*3 23.9 C 0 km/h
1159 15-06-2010 15:47:03 23.6 C 6.17 g/m*3 23.6 C 0 km/h
1160 15-06-2010 15:59:03 23.5 C 6.13 g/m*3 23.5 C 0 km/h
1161 15-06-2010 16:11:02 24.2 C 6.16 g/m*3 24.2 C 0 km/h
1162 15-06-2010 16:23:03 23.7 C 5.99 g/m*3 23.7 C 0 km/h
1163 15-06-2010 16:35:02 24.6 C 5.85 g/m*3 24.6 C 0 km/h
1164 15-06-2010 16:47:03 24.7 C 5.66 g/m*3 24.7 C 0 km/h
1165 15-06-2010 16:59:03 24.9 C 5.49 g/m*3 24.9 C 0 km/h
1166 15-06-2010 17:11:02 24.6 C 5.63 g/m*3 24.6 C 0 km/h
1167 15-06-2010 17:23:02 23.7 C 5.56 g/m*3 23.7 C 0 km/h
1168 15-06-2010 17:35:02 24.2 C 5.72 g/m*3 24.2 C 0 km/h
1169 15-06-2010 17:47:02 23.4 C 5.47 g/m*3 23.4 C 0 km/h
1170 15-06-2010 17:59:02 24.9 C 5.72 g/m*3 24.9 C 0 km/h
1171 15-06-2010 18:11:02 25.1 C 5.56 g/m*3 25.1 C 0 km/h
1172 15-06-2010 18:23:02 24.6 C 5.85 g/m*3 24.6 C 0 km/h
1173 15-06-2010 18:35:02 24.1 C 5.47 g/m*3 24.1 C 0 km/h
1174 15-06-2010 18:47:02 23.5 C 5.71 g/m*3 23.5 C 0 km/h
1175 15-06-2010 18:59:02 24.3 C 5.53 g/m*3 24.3 C 0 km/h
Sensor: Nr:Datum:Temp:Abs-Feuchte:Windchill:Wind:
Aussen-T/F 1176 15-06-2010 19:11:01 23.1 C 5.37 g/m*3 23.1 C 0 km/h
1177 15-06-2010 19:23:02 23.3 C 5.44 g/m*3 23.3 C 0 km/h
1178 15-06-2010 19:35:02 23.2 C 5.41 g/m*3 23.2 C 0 km/h
1179 15-06-2010 19:47:01 23.4 C 5.47 g/m*3 23.4 C 0 km/h
1180 15-06-2010 19:59:01 23.8 C 5.59 g/m*3 23.8 C 0 km/h
1181 15-06-2010 20:11:01 22.8 C 5.49 g/m*3 22.8 C 0 km/h
1182 15-06-2010 20:23:01 21.7 C 5.72 g/m*3 21.7 C 0 km/h
1183 15-06-2010 20:35:02 21.9 C 5.98 g/m*3 21.9 C 0 km/h
1184 15-06-2010 20:47:02 21.1 C 5.53 g/m*3 21.1 C 0 km/h
1185 15-06-2010 20:59:02 20.4 C 5.66 g/m*3 20.4 C 0 km/h
1186 15-06-2010 21:11:02 20 C 5.36 g/m*3 20 C 0 km/h
1187 15-06-2010 21:23:02 19.7 C 5.77 g/m*3 19.7 C 0 km/h
1188 15-06-2010 21:35:02 19.2 C 5.77 g/m*3 19.2 C 0 km/h
1189 15-06-2010 21:47:02 18.7 C 5.6 g/m*3 18.7 C 0 km/h
1190 15-06-2010 21:59:02 18.3 C 5.63 g/m*3 18.3 C 0 km/h
1191 15-06-2010 22:11:02 18 C 5.53 g/m*3 18 C 0 km/h
1192 15-06-2010 22:24:01 17.7 C 5.58 g/m*3 17.7 C 0 km/h
1193 15-06-2010 22:36:01 17.3 C 5.45 g/m*3 17.3 C 0 km/h
1194 15-06-2010 22:48:01 17.1 C 5.39 g/m*3 17.1 C 0 km/h
1195 15-06-2010 23:00:01 16.9 C 5.75 g/m*3 16.9 C 0 km/h
1196 15-06-2010 23:12:01 16.6 C 5.79 g/m*3 16.6 C 0 km/h
1197 15-06-2010 23:24:01 16.1 C 5.89 g/m*3 16.1 C 0 km/h
1198 15-06-2010 23:36:01 15.8 C 6.06 g/m*3 15.8 C 0 km/h
1199 15-06-2010 23:48:01 15.4 C 6.04 g/m*3 15.4 C 0 km/h
1200 16-06-2010 00:00:01 15.2 C 6.1 g/m*3 15.2 C 0 km/h
Sensor: Nr:Datum:Temp:Abs-Feuchte:Windchill:Wind:
Aussen-T/F 1201 16-06-2010 00:12:01 15 C 5.9 g/m*3 15 C 0 km/h
1202 16-06-2010 00:24:02 14.6 C 6.01 g/m*3 14.6 C 0 km/h
1203 16-06-2010 00:36:02 14.4 C 6.06 g/m*3 14.4 C 0 km/h
1204 16-06-2010 00:48:02 14.2 C 6.11 g/m*3 14.2 C 0 km/h
1205 16-06-2010 01:00:02 13.8 C 6.08 g/m*3 13.8 C 0 km/h
1206 16-06-2010 01:12:02 13.5 C 6.2 g/m*3 13.5 C 0 km/h
1207 16-06-2010 01:24:02 13.4 C 6.28 g/m*3 13.4 C 0 km/h
1208 16-06-2010 01:36:02 13.2 C 6.2 g/m*3 13.2 C 0 km/h
1209 16-06-2010 01:48:02 13.1 C 6.28 g/m*3 13.1 C 0 km/h
1210 16-06-2010 02:00:02 13 C 6.24 g/m*3 13 C 0 km/h
1211 16-06-2010 02:12:02 12.9 C 6.2 g/m*3 12.9 C 0 km/h
1212 16-06-2010 02:24:02 12.7 C 6.12 g/m*3 12.7 C 0 km/h
1213 16-06-2010 02:36:02 12.5 C 6.05 g/m*3 12.5 C 0 km/h
1214 16-06-2010 02:48:02 12.4 C 6.12 g/m*3 12.4 C 0 km/h
1215 16-06-2010 03:00:02 12.2 C 6.04 g/m*3 12.2 C 0 km/h
1216 16-06-2010 03:12:02 12 C 6.07 g/m*3 12 C 0 km/h
1217 16-06-2010 03:24:02 11.8 C 6.1 g/m*3 11.8 C 0 km/h
1218 16-06-2010 03:36:02 11.6 C 6.13 g/m*3 11.6 C 0 km/h
1219 16-06-2010 03:48:02 11.5 C 6.09 g/m*3 11.5 C 0 km/h
1220 16-06-2010 04:00:02 11.4 C 6.16 g/m*3 11.4 C 0 km/h
1221 16-06-2010 04:12:02 11.3 C 6.22 g/m*3 11.3 C 0 km/h
1222 16-06-2010 04:24:03 11.1 C 6.14 g/m*3 11.1 C 0 km/h
1223 16-06-2010 04:36:03 11.1 C 6.04 g/m*3 11.1 C 0 km/h
1224 16-06-2010 04:48:03 11.1 C 6.14 g/m*3 11.1 C 0 km/h
1225 16-06-2010 05:00:03 10.9 C 6.17 g/m*3 10.9 C 0 km/h
Sensor: Nr:Datum:Temp:Abs-Feuchte:Windchill:Wind:
Aussen-T/F 1226 16-06-2010 05:12:03 10.8 C 6.23 g/m*3 10.8 C 0 km/h
1227 16-06-2010 05:24:03 10.6 C 6.15 g/m*3 10.6 C 0 km/h
1228 16-06-2010 05:36:03 10.5 C 6.21 g/m*3 10.5 C 0 km/h
1229 16-06-2010 05:48:03 10.5 C 6.21 g/m*3 10.5 C 0 km/h
1230 16-06-2010 06:00:03 10.5 C 6.3 g/m*3 10.5 C 0 km/h
1231 16-06-2010 06:12:03 10.6 C 6.34 g/m*3 10.6 C 0 km/h
1232 16-06-2010 06:24:03 10.7 C 6.48 g/m*3 10.7 C 0 km/h
1233 16-06-2010 06:36:03 10.8 C 6.52 g/m*3 10.8 C 0 km/h
1234 16-06-2010 06:48:03 10.9 C 6.56 g/m*3 10.9 C 0 km/h
1235 16-06-2010 07:00:03 11.1 C 6.65 g/m*3 11.1 C 0 km/h
1236 16-06-2010 07:12:02 11.5 C 6.71 g/m*3 11.5 C 0 km/h
1237 16-06-2010 07:24:01 11.9 C 6.88 g/m*3 11.9 C 0 km/h
1238 16-06-2010 07:36:02 12.1 C 6.86 g/m*3 12.1 C 0 km/h
1239 16-06-2010 07:48:02 12.5 C 6.82 g/m*3 12.5 C 0 km/h
1240 16-06-2010 08:00:02 12.9 C 6.76 g/m*3 12.9 C 0 km/h
1241 16-06-2010 08:12:02 13.3 C 6.47 g/m*3 13.3 C 0 km/h
1242 16-06-2010 08:24:02 13.7 C 6.39 g/m*3 13.7 C 0 km/h
1243 16-06-2010 08:36:02 14.1 C 6.07 g/m*3 14.1 C 0 km/h
1244 16-06-2010 08:48:01 14.5 C 5.97 g/m*3 14.5 C 0 km/h
1245 16-06-2010 09:00:01 14.9 C 5.86 g/m*3 14.9 C 0 km/h
1246 16-06-2010 09:12:02 15.5 C 5.82 g/m*3 15.5 C 0 km/h
1247 16-06-2010 09:24:01 16 C 5.59 g/m*3 16 C 0 km/h
1248 16-06-2010 09:36:01 16.5 C 5.76 g/m*3 16.5 C 0 km/h
1249 16-06-2010 09:48:02 16.9 C 5.61 g/m*3 16.9 C 0 km/h
1250 16-06-2010 10:00:02 17.3 C 5.3 g/m*3 17.3 C 0 km/h
Sensor: Nr:Datum:Temp:Abs-Feuchte:Windchill:Wind:
Aussen-T/F 1251 16-06-2010 10:12:02 17.5 C 5.37 g/m*3 17.5 C 0 km/h
1252 16-06-2010 10:24:02 18.3 C 5.32 g/m*3 18.3 C 0 km/h
1253 16-06-2010 10:36:02 18.6 C 5.09 g/m*3 18.6 C 0 km/h
1254 16-06-2010 10:48:02 19.1 C 4.92 g/m*3 19.1 C 0 km/h
1255 16-06-2010 11:00:02 19.4 C 4.5 g/m*3 19.4 C 0 km/h
1256 16-06-2010 11:12:02 19.7 C 4.75 g/m*3 19.7 C 0 km/h
1257 16-06-2010 11:24:02 20.3 C 4.4 g/m*3 20.3 C 0 km/h
1258 16-06-2010 11:36:02 21.3 C 4.66 g/m*3 21.3 C 0 km/h
1259 16-06-2010 11:48:02 21.7 C 4.58 g/m*3 21.7 C 0 km/h
1260 16-06-2010 12:00:02 22.3 C 4.54 g/m*3 22.3 C 0 km/h
1261 16-06-2010 12:12:02 23 C 4.32 g/m*3 23 C 0 km/h
1262 16-06-2010 12:24:02 23.7 C 4.49 g/m*3 23.7 C 0 km/h
1263 16-06-2010 12:36:01 23.7 C 4.28 g/m*3 23.7 C 0 km/h
1264 16-06-2010 12:48:02 24.4 C 4.45 g/m*3 24.4 C 0 km/h
1265 16-06-2010 13:00:02 25.1 C 4.63 g/m*3 25.1 C 0 km/h
1266 16-06-2010 13:12:01 25.6 C 4.76 g/m*3 25.6 C 0 km/h
1267 16-06-2010 13:24:02 26.2 C 4.92 g/m*3 26.2 C 0 km/h
1268 16-06-2010 13:36:02 27.2 C 5.2 g/m*3 27.2 C 0 km/h
1269 16-06-2010 13:48:02 27.1 C 5.18 g/m*3 27.1 C 0 km/h
1270 16-06-2010 14:00:03 26.2 C 4.92 g/m*3 26.2 C 0 km/h
1271 16-06-2010 14:12:02 25.4 C 4.71 g/m*3 25.4 C 0 km/h
1272 16-06-2010 14:24:02 25.4 C 4.71 g/m*3 25.4 C 0 km/h
1273 16-06-2010 14:36:02 25.3 C 4.68 g/m*3 25.3 C 0 km/h
1274 16-06-2010 14:48:02 25.5 C 4.73 g/m*3 25.5 C 0 km/h
1275 16-06-2010 15:00:02 25.7 C 4.79 g/m*3 25.7 C 0 km/h
Sensor: Nr:Datum:Temp:Abs-Feuchte:Windchill:Wind:
Aussen-T/F 1276 16-06-2010 15:12:02 25.8 C 4.82 g/m*3 25.8 C 0 km/h
1277 16-06-2010 15:24:01 26.2 C 4.92 g/m*3 26.2 C 0 km/h
1278 16-06-2010 15:36:02 26.5 C 5.01 g/m*3 26.5 C 0 km/h
1279 16-06-2010 15:48:02 26.6 C 5.03 g/m*3 26.6 C 0 km/h
1280 16-06-2010 16:00:02 27.1 C 5.18 g/m*3 27.1 C 0 km/h
1281 16-06-2010 16:12:02 27.2 C 5.2 g/m*3 27.2 C 0 km/h
1282 16-06-2010 16:24:02 26.9 C 5.12 g/m*3 26.9 C 0 km/h
1283 16-06-2010 16:36:02 27.3 C 5.23 g/m*3 27.3 C 0 km/h
1284 16-06-2010 16:48:02 26.9 C 5.12 g/m*3 26.9 C 0 km/h
1285 16-06-2010 17:00:02 26.5 C 5.01 g/m*3 26.5 C 0 km/h
1286 16-06-2010 17:12:02 26.3 C 4.95 g/m*3 26.3 C 0 km/h
1287 16-06-2010 17:24:02 27.9 C 5.41 g/m*3 27.9 C 0 km/h
1288 16-06-2010 17:36:02 27.5 C 5.29 g/m*3 27.5 C 0 km/h
1289 16-06-2010 17:48:01 26.5 C 5.01 g/m*3 26.5 C 0 km/h
1290 16-06-2010 18:00:01 26.9 C 5.12 g/m*3 26.9 C 0 km/h
1291 16-06-2010 18:12:02 26.9 C 5.12 g/m*3 26.9 C 0 km/h
1292 16-06-2010 18:24:01 26.9 C 5.12 g/m*3 26.9 C 0 km/h
1293 16-06-2010 18:36:01 26.3 C 4.95 g/m*3 26.3 C 0 km/h
1294 16-06-2010 18:48:01 26.1 C 4.9 g/m*3 26.1 C 0 km/h
1295 16-06-2010 19:00:01 26.6 C 5.03 g/m*3 26.6 C 0 km/h
1296 16-06-2010 19:12:02 25.7 C 4.79 g/m*3 25.7 C 0 km/h
1297 16-06-2010 19:24:01 24.9 C 4.58 g/m*3 24.9 C 0 km/h
1298 16-06-2010 19:36:01 24.1 C 4.59 g/m*3 24.1 C 0 km/h
1299 16-06-2010 19:48:01 24.1 C 5.03 g/m*3 24.1 C 0 km/h
1300 16-06-2010 20:00:01 23.9 C 5.19 g/m*3 23.9 C 0 km/h
Sensor: Nr:Datum:Temp:Abs-Feuchte:Windchill:Wind:
Aussen-T/F 1301 16-06-2010 20:12:01 23.1 C 5.17 g/m*3 23.1 C 0 km/h
1302 16-06-2010 20:24:02 22.5 C 5.19 g/m*3 22.5 C 0 km/h
1303 16-06-2010 20:36:01 22.5 C 5.39 g/m*3 22.5 C 0 km/h
1304 16-06-2010 20:48:03 22.2 C 5.3 g/m*3 22.2 C 0 km/h
1305 16-06-2010 21:00:03 21.9 C 5.79 g/m*3 21.9 C 0 km/h
1306 16-06-2010 21:12:02 21.3 C 5.78 g/m*3 21.3 C 0 km/h
1307 16-06-2010 21:24:03 20.8 C 5.79 g/m*3 20.8 C 0 km/h
1308 16-06-2010 21:36:02 20.2 C 5.94 g/m*3 20.2 C 0 km/h
1309 16-06-2010 21:48:02 19.6 C 5.91 g/m*3 19.6 C 0 km/h
1310 16-06-2010 22:00:02 19.1 C 5.74 g/m*3 19.1 C 0 km/h
1311 16-06-2010 22:12:02 18.8 C 5.8 g/m*3 18.8 C 0 km/h
1312 16-06-2010 22:24:02 18.5 C 5.7 g/m*3 18.5 C 0 km/h
1313 16-06-2010 22:36:02 18.3 C 5.79 g/m*3 18.3 C 0 km/h
1314 16-06-2010 22:48:02 18.2 C 5.75 g/m*3 18.2 C 0 km/h
1315 16-06-2010 23:00:02 18 C 5.84 g/m*3 18 C 0 km/h
1316 16-06-2010 23:12:02 17.6 C 5.85 g/m*3 17.6 C 0 km/h
1317 16-06-2010 23:24:02 17.2 C 5.86 g/m*3 17.2 C 0 km/h
1318 16-06-2010 23:37:02 17 C 5.93 g/m*3 17 C 0 km/h
1319 16-06-2010 23:49:02 16.8 C 6 g/m*3 16.8 C 0 km/h
1320 17-06-2010 00:01:02 16.5 C 5.9 g/m*3 16.5 C 0 km/h
1321 17-06-2010 00:13:02 16.3 C 5.97 g/m*3 16.3 C 0 km/h
1322 17-06-2010 00:25:02 16 C 5.99 g/m*3 16 C 0 km/h
1323 17-06-2010 00:37:02 16 C 5.99 g/m*3 16 C 0 km/h
1324 17-06-2010 00:49:02 15.8 C 6.06 g/m*3 15.8 C 0 km/h
1325 17-06-2010 01:01:02 15.6 C 6.12 g/m*3 15.6 C 0 km/h
Sensor: Nr:Datum:Temp:Abs-Feuchte:Windchill:Wind:
Aussen-T/F 1326 17-06-2010 01:13:03 15.5 C 5.95 g/m*3 15.5 C 0 km/h
1327 17-06-2010 01:25:03 15.4 C 6.04 g/m*3 15.4 C 0 km/h
1328 17-06-2010 01:37:03 15.2 C 6.1 g/m*3 15.2 C 0 km/h
1329 17-06-2010 01:49:03 15.2 C 6.1 g/m*3 15.2 C 0 km/h
1330 17-06-2010 02:01:03 15 C 6.03 g/m*3 15 C 0 km/h
1331 17-06-2010 02:13:03 14.9 C 6.12 g/m*3 14.9 C 0 km/h
1332 17-06-2010 02:25:03 14.8 C 6.21 g/m*3 14.8 C 0 km/h
1333 17-06-2010 02:37:03 14.6 C 6.13 g/m*3 14.6 C 0 km/h
1334 17-06-2010 02:49:03 14.5 C 6.22 g/m*3 14.5 C 0 km/h
1335 17-06-2010 03:01:03 14.5 C 6.22 g/m*3 14.5 C 0 km/h
1336 17-06-2010 03:13:03 14.5 C 6.09 g/m*3 14.5 C 0 km/h
1337 17-06-2010 03:25:03 14.5 C 6.09 g/m*3 14.5 C 0 km/h
1338 17-06-2010 03:37:03 14.5 C 6.09 g/m*3 14.5 C 0 km/h
1339 17-06-2010 03:49:03 14.4 C 6.06 g/m*3 14.4 C 0 km/h
1340 17-06-2010 04:01:03 14.2 C 5.98 g/m*3 14.2 C 0 km/h
1341 17-06-2010 04:13:03 14.3 C 6.02 g/m*3 14.3 C 0 km/h
1342 17-06-2010 04:25:03 14.1 C 5.95 g/m*3 14.1 C 0 km/h
1343 17-06-2010 04:37:03 14.1 C 5.83 g/m*3 14.1 C 0 km/h
1344 17-06-2010 04:49:03 14 C 5.91 g/m*3 14 C 0 km/h
1345 17-06-2010 05:01:03 13.8 C 5.84 g/m*3 13.8 C 0 km/h
1346 17-06-2010 05:13:04 13.8 C 5.84 g/m*3 13.8 C 0 km/h
1347 17-06-2010 05:25:04 13.6 C 5.77 g/m*3 13.6 C 0 km/h
1348 17-06-2010 05:37:04 13.5 C 5.85 g/m*3 13.5 C 0 km/h
1349 17-06-2010 05:49:04 13.4 C 5.93 g/m*3 13.4 C 0 km/h
1350 17-06-2010 06:01:04 13.5 C 5.97 g/m*3 13.5 C 0 km/h
Sensor: Nr:Datum:Temp:Abs-Feuchte:Windchill:Wind:
Aussen-T/F 1351 17-06-2010 06:13:04 13.5 C 5.97 g/m*3 13.5 C 0 km/h
1352 17-06-2010 06:25:04 13.7 C 6.16 g/m*3 13.7 C 0 km/h
1353 17-06-2010 06:37:04 14.1 C 6.19 g/m*3 14.1 C 0 km/h
1354 17-06-2010 06:49:04 14.4 C 6.43 g/m*3 14.4 C 0 km/h
1355 17-06-2010 07:01:03 14.4 C 6.3 g/m*3 14.4 C 0 km/h
1356 17-06-2010 07:13:04 14.7 C 6.17 g/m*3 14.7 C 0 km/h
1357 17-06-2010 07:25:02 15.1 C 6.19 g/m*3 15.1 C 0 km/h
1358 17-06-2010 07:37:03 15.5 C 6.21 g/m*3 15.5 C 0 km/h
1359 17-06-2010 07:49:02 16 C 6.54 g/m*3 16 C 0 km/h
1360 17-06-2010 08:01:02 16.2 C 6.62 g/m*3 16.2 C 0 km/h
1361 17-06-2010 08:13:03 16.5 C 6.6 g/m*3 16.5 C 0 km/h
1362 17-06-2010 08:25:01 16.6 C 6.64 g/m*3 16.6 C 0 km/h
1363 17-06-2010 08:37:02 16.6 C 6.5 g/m*3 16.6 C 0 km/h
1364 17-06-2010 08:49:02 16.8 C 6.72 g/m*3 16.8 C 0 km/h
1365 17-06-2010 09:01:02 16.7 C 6.68 g/m*3 16.7 C 0 km/h
1366 17-06-2010 09:13:02 15.1 C 7.61 g/m*3 15.1 C 0 km/h
1367 17-06-2010 09:25:01 13.9 C 8.27 g/m*3 13.9 C 0 km/h
1368 17-06-2010 09:37:02 13.5 C 8.66 g/m*3 13.5 C 0 km/h
1369 17-06-2010 09:49:01 13.1 C 8.67 g/m*3 13.1 C 0 km/h
1370 17-06-2010 10:01:02 12.9 C 9.02 g/m*3 12.9 C 0 km/h
1371 17-06-2010 10:13:02 12.9 C 9.47 g/m*3 12.9 C 0 km/h
1372 17-06-2010 10:25:02 13 C 9.64 g/m*3 13 C 0 km/h
1373 17-06-2010 10:37:02 13.2 C 9.99 g/m*3 13.2 C 0 km/h
1374 17-06-2010 10:49:01 13.2 C 9.99 g/m*3 13.2 C 0 km/h
1375 17-06-2010 11:01:02 13.5 C 10.29 g/m*3 13.5 C 0 km/h
Sensor: Nr:Datum:Temp:Abs-Feuchte:Windchill:Wind:
Aussen-T/F 1376 17-06-2010 11:13:02 13.8 C 10.48 g/m*3 13.8 C 0 km/h
1377 17-06-2010 11:25:02 13.8 C 10.48 g/m*3 13.8 C 0 km/h
1378 17-06-2010 11:37:02 14 C 10.61 g/m*3 14 C 0 km/h
1379 17-06-2010 11:49:02 13.9 C 10.67 g/m*3 13.9 C 0 km/h
1380 17-06-2010 12:01:02 14 C 10.74 g/m*3 14 C 0 km/h
1381 17-06-2010 12:13:02 14 C 10.74 g/m*3 14 C 0 km/h
1382 17-06-2010 12:25:02 13.7 C 10.54 g/m*3 13.7 C 0 km/h
1383 17-06-2010 12:37:01 13.8 C 10.72 g/m*3 13.8 C 0 km/h
1384 17-06-2010 12:49:02 13.8 C 10.72 g/m*3 13.8 C 0 km/h
1385 17-06-2010 13:01:01 13.7 C 10.66 g/m*3 13.7 C 0 km/h
1386 17-06-2010 13:13:01 13.7 C 10.78 g/m*3 13.7 C 0 km/h
1387 17-06-2010 13:25:02 13.8 C 10.84 g/m*3 13.8 C 0 km/h
1388 17-06-2010 13:37:01 13.8 C 10.84 g/m*3 13.8 C 0 km/h
1389 17-06-2010 13:49:02 13.9 C 10.91 g/m*3 13.9 C 0 km/h
1390 17-06-2010 14:01:02 13.7 C 10.89 g/m*3 13.7 C 0 km/h
1391 17-06-2010 14:13:02 13.9 C 11.03 g/m*3 13.9 C 0 km/h
1392 17-06-2010 14:25:02 14.2 C 11.23 g/m*3 14.2 C 0 km/h
1393 17-06-2010 14:37:02 14.6 C 11.51 g/m*3 14.6 C 0 km/h
1394 17-06-2010 14:49:02 15.4 C 11.96 g/m*3 15.4 C 0 km/h
1395 17-06-2010 15:01:01 15.9 C 12.19 g/m*3 15.9 C 0 km/h
1396 17-06-2010 15:13:01 16.4 C 12.28 g/m*3 16.4 C 0 km/h
1397 17-06-2010 15:25:02 16.6 C 12.29 g/m*3 16.6 C 0 km/h
1398 17-06-2010 15:37:01 17 C 12.44 g/m*3 17 C 0 km/h
1399 17-06-2010 15:49:02 17 C 11.87 g/m*3 17 C 0 km/h
1400 17-06-2010 16:01:01 17 C 12.01 g/m*3 17 C 0 km/h
Sensor: Nr:Datum:Temp:Abs-Feuchte:Windchill:Wind:
Aussen-T/F 1401 17-06-2010 16:13:01 16.9 C 12.08 g/m*3 16.9 C 0 km/h
1402 17-06-2010 16:25:02 16.8 C 12.01 g/m*3 16.8 C 0 km/h
1403 17-06-2010 16:37:01 16.9 C 12.08 g/m*3 16.9 C 0 km/h
1404 17-06-2010 16:49:03 17 C 12.01 g/m*3 17 C 0 km/h
1405 17-06-2010 17:01:02 17 C 11.87 g/m*3 17 C 0 km/h
1406 17-06-2010 17:13:02 16.6 C 11.72 g/m*3 16.6 C 0 km/h
1407 17-06-2010 17:25:02 16.5 C 11.8 g/m*3 16.5 C 0 km/h
1408 17-06-2010 17:37:02 16.5 C 11.8 g/m*3 16.5 C 0 km/h
1409 17-06-2010 17:49:02 16.9 C 11.94 g/m*3 16.9 C 0 km/h
1410 17-06-2010 18:01:03 17 C 11.58 g/m*3 17 C 0 km/h
1411 17-06-2010 18:13:04 17 C 11.43 g/m*3 17 C 0 km/h
1412 17-06-2010 18:25:03 17.2 C 11.72 g/m*3 17.2 C 0 km/h
1413 17-06-2010 18:37:03 17.2 C 11.86 g/m*3 17.2 C 0 km/h
1414 17-06-2010 18:49:02 17.2 C 11.86 g/m*3 17.2 C 0 km/h
1415 17-06-2010 19:01:02 16.8 C 11.72 g/m*3 16.8 C 0 km/h
1416 17-06-2010 19:13:02 16.8 C 12.01 g/m*3 16.8 C 0 km/h
1417 17-06-2010 19:25:01 16.7 C 12.08 g/m*3 16.7 C 0 km/h
1418 17-06-2010 19:37:02 16.5 C 12.08 g/m*3 16.5 C 0 km/h
1419 17-06-2010 19:49:02 16.3 C 11.93 g/m*3 16.3 C 0 km/h
1420 17-06-2010 20:01:02 16.2 C 12 g/m*3 16.2 C 0 km/h
1421 17-06-2010 20:13:02 16 C 11.85 g/m*3 16 C 0 km/h
1422 17-06-2010 20:25:02 15.8 C 11.85 g/m*3 15.8 C 0 km/h
1423 17-06-2010 20:37:02 15.6 C 11.7 g/m*3 15.6 C 0 km/h
1424 17-06-2010 20:49:01 15.5 C 11.63 g/m*3 15.5 C 0 km/h
1425 17-06-2010 21:01:02 15.5 C 11.76 g/m*3 15.5 C 0 km/h
Sensor: Nr:Datum:Temp:Abs-Feuchte:Windchill:Wind:
Aussen-T/F 1426 17-06-2010 21:13:02 15.5 C 11.76 g/m*3 15.5 C 0 km/h
1427 17-06-2010 21:25:02 15.6 C 11.84 g/m*3 15.6 C 0 km/h
1428 17-06-2010 21:37:02 15.4 C 11.69 g/m*3 15.4 C 0 km/h
1429 17-06-2010 21:49:02 15.3 C 11.62 g/m*3 15.3 C 0 km/h
1430 17-06-2010 22:01:02 15.2 C 11.68 g/m*3 15.2 C 0 km/h
1431 17-06-2010 22:13:02 15.2 C 11.68 g/m*3 15.2 C 0 km/h
1432 17-06-2010 22:25:01 15 C 11.54 g/m*3 15 C 0 km/h
1433 17-06-2010 22:37:02 15 C 11.54 g/m*3 15 C 0 km/h
1434 17-06-2010 22:50:02 14.9 C 11.6 g/m*3 14.9 C 0 km/h
1435 17-06-2010 23:02:02 14.8 C 11.53 g/m*3 14.8 C 0 km/h
1436 17-06-2010 23:14:02 14.6 C 11.39 g/m*3 14.6 C 0 km/h
1437 17-06-2010 23:26:02 14.4 C 11.25 g/m*3 14.4 C 0 km/h
1438 17-06-2010 23:38:02 14.3 C 11.18 g/m*3 14.3 C 0 km/h
1439 17-06-2010 23:50:02 14.2 C 11.11 g/m*3 14.2 C 0 km/h
1440 18-06-2010 00:02:02 14 C 10.98 g/m*3 14 C 0 km/h
1441 18-06-2010 00:14:02 13.8 C 10.84 g/m*3 13.8 C 0 km/h
1442 18-06-2010 00:26:02 13.7 C 10.89 g/m*3 13.7 C 0 km/h
1443 18-06-2010 00:38:02 13.7 C 10.89 g/m*3 13.7 C 0 km/h
1444 18-06-2010 00:50:02 13.8 C 10.96 g/m*3 13.8 C 0 km/h
1445 18-06-2010 01:02:02 14 C 11.1 g/m*3 14 C 0 km/h
1446 18-06-2010 01:14:02 14 C 11.1 g/m*3 14 C 0 km/h
1447 18-06-2010 01:26:02 14 C 11.1 g/m*3 14 C 0 km/h
1448 18-06-2010 01:38:02 14.1 C 11.17 g/m*3 14.1 C 0 km/h
1449 18-06-2010 01:50:02 14.1 C 11.17 g/m*3 14.1 C 0 km/h
1450 18-06-2010 02:02:02 14 C 11.1 g/m*3 14 C 0 km/h
Sensor: Nr:Datum:Temp:Abs-Feuchte:Windchill:Wind:
Aussen-T/F 1451 18-06-2010 02:14:02 13.9 C 11.03 g/m*3 13.9 C 0 km/h
1452 18-06-2010 02:26:02 13.8 C 10.96 g/m*3 13.8 C 0 km/h
1453 18-06-2010 02:38:02 13.6 C 10.83 g/m*3 13.6 C 0 km/h
1454 18-06-2010 02:50:03 13.5 C 10.76 g/m*3 13.5 C 0 km/h
1455 18-06-2010 03:02:03 13.4 C 10.69 g/m*3 13.4 C 0 km/h
1456 18-06-2010 03:14:03 13.6 C 10.83 g/m*3 13.6 C 0 km/h
1457 18-06-2010 03:26:03 13.7 C 10.89 g/m*3 13.7 C 0 km/h
1458 18-06-2010 03:38:03 13.5 C 10.76 g/m*3 13.5 C 0 km/h
1459 18-06-2010 03:50:03 13.2 C 10.45 g/m*3 13.2 C 0 km/h
1460 18-06-2010 04:02:03 12.9 C 10.26 g/m*3 12.9 C 0 km/h
1461 18-06-2010 04:14:03 12.7 C 10.13 g/m*3 12.7 C 0 km/h
1462 18-06-2010 04:26:03 12.4 C 9.94 g/m*3 12.4 C 0 km/h
1463 18-06-2010 04:38:03 12.3 C 9.88 g/m*3 12.3 C 0 km/h
1464 18-06-2010 04:50:03 12.2 C 9.82 g/m*3 12.2 C 0 km/h
1465 18-06-2010 05:02:03 12.2 C 9.82 g/m*3 12.2 C 0 km/h
1466 18-06-2010 05:14:03 12.2 C 9.82 g/m*3 12.2 C 0 km/h
1467 18-06-2010 05:26:03 12.1 C 9.76 g/m*3 12.1 C 0 km/h
1468 18-06-2010 05:38:03 12 C 9.7 g/m*3 12 C 0 km/h
1469 18-06-2010 05:50:03 12 C 9.7 g/m*3 12 C 0 km/h
1470 18-06-2010 06:02:03 12 C 9.7 g/m*3 12 C 0 km/h
1471 18-06-2010 06:14:03 12.1 C 9.76 g/m*3 12.1 C 0 km/h
1472 18-06-2010 06:26:03 12.2 C 9.82 g/m*3 12.2 C 0 km/h
1473 18-06-2010 06:38:03 12.2 C 9.82 g/m*3 12.2 C 0 km/h
1474 18-06-2010 06:50:04 12.4 C 9.83 g/m*3 12.4 C 0 km/h
1475 18-06-2010 07:02:02 12.5 C 9.89 g/m*3 12.5 C 0 km/h
Sensor: Nr:Datum:Temp:Abs-Feuchte:Windchill:Wind:
Aussen-T/F 1476 18-06-2010 07:14:02 12.7 C 9.91 g/m*3 12.7 C 0 km/h
1477 18-06-2010 07:26:02 12.8 C 9.86 g/m*3 12.8 C 0 km/h
1478 18-06-2010 07:38:02 12.8 C 9.86 g/m*3 12.8 C 0 km/h
1479 18-06-2010 07:50:02 12.9 C 9.81 g/m*3 12.9 C 0 km/h
1480 18-06-2010 08:02:02 13.1 C 9.7 g/m*3 13.1 C 0 km/h
1481 18-06-2010 08:14:02 13.4 C 9.76 g/m*3 13.4 C 0 km/h
1482 18-06-2010 08:26:02 13.5 C 9.83 g/m*3 13.5 C 0 km/h
1483 18-06-2010 08:38:02 13.8 C 9.89 g/m*3 13.8 C 0 km/h
1484 18-06-2010 08:50:02 14.4 C 10.01 g/m*3 14.4 C 0 km/h
1485 18-06-2010 09:02:02 14.8 C 9.88 g/m*3 14.8 C 0 km/h
1486 18-06-2010 09:14:02 15 C 9.49 g/m*3 15 C 0 km/h
1487 18-06-2010 09:26:02 15.5 C 9.78 g/m*3 15.5 C 0 km/h
1488 18-06-2010 09:38:02 15.7 C 9.77 g/m*3 15.7 C 0 km/h
1489 18-06-2010 09:50:02 16.4 C 9.77 g/m*3 16.4 C 0 km/h
1490 18-06-2010 10:02:03 16.5 C 9.27 g/m*3 16.5 C 0 km/h
1491 18-06-2010 10:14:03 16.6 C 9.46 g/m*3 16.6 C 0 km/h
1492 18-06-2010 10:26:02 16.3 C 9.43 g/m*3 16.3 C 0 km/h
1493 18-06-2010 10:38:02 17 C 9.55 g/m*3 17 C 0 km/h
1494 18-06-2010 10:50:02 16.4 C 8.93 g/m*3 16.4 C 0 km/h
1495 18-06-2010 11:02:02 16.2 C 9.1 g/m*3 16.2 C 0 km/h
1496 18-06-2010 11:14:02 15.9 C 9.07 g/m*3 15.9 C 0 km/h
1497 18-06-2010 11:26:01 16.3 C 9.02 g/m*3 16.3 C 0 km/h
1498 18-06-2010 11:38:02 16.6 C 8.9 g/m*3 16.6 C 0 km/h
1499 18-06-2010 11:50:02 15.9 C 8.53 g/m*3 15.9 C 0 km/h
1500 18-06-2010 12:02:02 15.9 C 8.94 g/m*3 15.9 C 0 km/h
Sensor: Nr:Datum:Temp:Abs-Feuchte:Windchill:Wind:
Aussen-T/F 1501 18-06-2010 12:14:02 15.5 C 8.59 g/m*3 15.5 C 0 km/h
1502 18-06-2010 12:26:01 15.3 C 8.88 g/m*3 15.3 C 0 km/h
1503 18-06-2010 12:38:02 15 C 8.72 g/m*3 15 C 0 km/h
1504 18-06-2010 12:50:02 15.6 C 8.91 g/m*3 15.6 C 0 km/h
1505 18-06-2010 13:02:02 15.7 C 8.7 g/m*3 15.7 C 0 km/h
1506 18-06-2010 13:14:03 16.3 C 8.6 g/m*3 16.3 C 0 km/h
1507 18-06-2010 13:26:01 16.1 C 8.64 g/m*3 16.1 C 0 km/h
1508 18-06-2010 13:38:02 15.8 C 8.48 g/m*3 15.8 C 0 km/h
1509 18-06-2010 13:50:02 15.3 C 8.49 g/m*3 15.3 C 0 km/h
1510 18-06-2010 14:02:02 15.3 C 8.49 g/m*3 15.3 C 0 km/h
1511 18-06-2010 14:14:02 14.9 C 8.54 g/m*3 14.9 C 0 km/h
1512 18-06-2010 14:26:01 14.7 C 8.44 g/m*3 14.7 C 0 km/h
1513 18-06-2010 14:38:02 14.5 C 8.46 g/m*3 14.5 C 0 km/h
1514 18-06-2010 14:50:02 14.9 C 8.54 g/m*3 14.9 C 0 km/h
1515 18-06-2010 15:02:02 15.4 C 8.54 g/m*3 15.4 C 0 km/h
1516 18-06-2010 15:14:03 14.5 C 8.33 g/m*3 14.5 C 0 km/h
1517 18-06-2010 15:26:02 14.9 C 8.54 g/m*3 14.9 C 0 km/h
1518 18-06-2010 15:38:02 15.2 C 8.44 g/m*3 15.2 C 0 km/h
1519 18-06-2010 15:50:02 14.7 C 8.18 g/m*3 14.7 C 0 km/h
1520 18-06-2010 16:02:03 14.8 C 8.49 g/m*3 14.8 C 0 km/h
1521 18-06-2010 16:14:03 14.7 C 8.44 g/m*3 14.7 C 0 km/h
1522 18-06-2010 16:26:03 15 C 8.33 g/m*3 15 C 0 km/h
1523 18-06-2010 16:38:02 15.6 C 8.38 g/m*3 15.6 C 0 km/h
1524 18-06-2010 16:50:01 16.8 C 7.86 g/m*3 16.8 C 0 km/h
1525 18-06-2010 17:02:02 17.9 C 7.94 g/m*3 17.9 C 0 km/h
Sensor: Nr:Datum:Temp:Abs-Feuchte:Windchill:Wind:
Aussen-T/F 1526 18-06-2010 17:14:02 19.1 C 7.21 g/m*3 19.1 C 0 km/h
1527 18-06-2010 17:26:01 19.2 C 6.93 g/m*3 19.2 C 0 km/h
1528 18-06-2010 17:38:02 19.8 C 7.34 g/m*3 19.8 C 0 km/h
1529 18-06-2010 17:50:02 19.8 C 6.83 g/m*3 19.8 C 0 km/h
1530 18-06-2010 18:02:03 21 C 6.96 g/m*3 21 C 0 km/h
1531 18-06-2010 18:14:03 20.8 C 6.88 g/m*3 20.8 C 0 km/h
1532 18-06-2010 18:26:02 21.5 C 6.98 g/m*3 21.5 C 0 km/h
1533 18-06-2010 18:38:02 21.8 C 6.91 g/m*3 21.8 C 0 km/h
1534 18-06-2010 18:50:02 22.2 C 6.87 g/m*3 22.2 C 0 km/h
1535 18-06-2010 19:02:02 20.8 C 6.7 g/m*3 20.8 C 0 km/h
1536 18-06-2010 19:14:02 19.9 C 7.04 g/m*3 19.9 C 0 km/h
1537 18-06-2010 19:26:02 19.1 C 7.21 g/m*3 19.1 C 0 km/h
1538 18-06-2010 19:38:02 18.9 C 7.45 g/m*3 18.9 C 0 km/h
1539 18-06-2010 19:50:02 18.9 C 7.61 g/m*3 18.9 C 0 km/h
1540 18-06-2010 20:02:02 18.5 C 7.44 g/m*3 18.5 C 0 km/h
1541 18-06-2010 20:14:02 18.1 C 7.42 g/m*3 18.1 C 0 km/h
1542 18-06-2010 20:26:02 17.8 C 7.59 g/m*3 17.8 C 0 km/h
1543 18-06-2010 20:38:02 17.5 C 7.75 g/m*3 17.5 C 0 km/h
1544 18-06-2010 20:50:01 17.2 C 7.91 g/m*3 17.2 C 0 km/h
1545 18-06-2010 21:02:02 16 C 8.72 g/m*3 16 C 0 km/h
1546 18-06-2010 21:14:02 15 C 9.36 g/m*3 15 C 0 km/h
1547 18-06-2010 21:26:01 14.8 C 9.75 g/m*3 14.8 C 0 km/h
1548 18-06-2010 21:38:01 14.7 C 9.82 g/m*3 14.7 C 0 km/h
1549 18-06-2010 21:50:01 14.6 C 9.89 g/m*3 14.6 C 0 km/h
1550 18-06-2010 22:02:01 14.7 C 9.82 g/m*3 14.7 C 0 km/h
Sensor: Nr:Datum:Temp:Abs-Feuchte:Windchill:Wind:
Aussen-T/F 1551 18-06-2010 22:14:01 14.7 C 9.57 g/m*3 14.7 C 0 km/h
1552 18-06-2010 22:26:02 14.8 C 9.5 g/m*3 14.8 C 0 km/h
1553 18-06-2010 22:38:01 15 C 9.49 g/m*3 15 C 0 km/h
1554 18-06-2010 22:50:02 15.1 C 9.29 g/m*3 15.1 C 0 km/h
1555 18-06-2010 23:02:01 15 C 9.23 g/m*3 15 C 0 km/h
1556 18-06-2010 23:14:01 14.8 C 8.61 g/m*3 14.8 C 0 km/h
1557 18-06-2010 23:27:04 14.8 C 6.84 g/m*3 14.8 C 0 km/h
1558 18-06-2010 23:39:04 14.7 C 6.55 g/m*3 14.7 C 0 km/h
1559 18-06-2010 23:51:04 14.7 C 6.42 g/m*3 14.7 C 0 km/h
1560 19-06-2010 00:03:04 14.6 C 6.63 g/m*3 14.6 C 0 km/h
1561 19-06-2010 00:15:04 14.5 C 6.72 g/m*3 14.5 C 0 km/h
1562 19-06-2010 00:27:04 14.4 C 6.92 g/m*3 14.4 C 0 km/h
1563 19-06-2010 00:39:04 14.3 C 7.13 g/m*3 14.3 C 0 km/h
1564 19-06-2010 00:51:04 14.2 C 7.08 g/m*3 14.2 C 0 km/h
1565 19-06-2010 01:03:04 14 C 7.12 g/m*3 14 C 0 km/h
1566 19-06-2010 01:15:04 13.8 C 7.27 g/m*3 13.8 C 0 km/h
1567 19-06-2010 01:27:05 13.6 C 7.18 g/m*3 13.6 C 0 km/h
1568 19-06-2010 01:39:05 13.4 C 7.09 g/m*3 13.4 C 0 km/h
1569 19-06-2010 01:51:05 13.2 C 7 g/m*3 13.2 C 0 km/h
1570 19-06-2010 02:03:05 12.8 C 6.94 g/m*3 12.8 C 0 km/h
1571 19-06-2010 02:15:05 12.7 C 6.9 g/m*3 12.7 C 0 km/h
1572 19-06-2010 02:27:05 12.5 C 6.82 g/m*3 12.5 C 0 km/h
1573 19-06-2010 02:39:05 12.4 C 6.77 g/m*3 12.4 C 0 km/h
1574 19-06-2010 02:51:05 12.4 C 6.77 g/m*3 12.4 C 0 km/h
1575 19-06-2010 03:03:05 12.5 C 6.82 g/m*3 12.5 C 0 km/h
Sensor: Nr:Datum:Temp:Abs-Feuchte:Windchill:Wind:
Aussen-T/F 1576 19-06-2010 03:15:05 12.5 C 6.71 g/m*3 12.5 C 0 km/h
1577 19-06-2010 03:27:05 12.1 C 6.54 g/m*3 12.1 C 0 km/h
1578 19-06-2010 03:39:05 11.8 C 6.74 g/m*3 11.8 C 0 km/h
1579 19-06-2010 03:51:05 11.5 C 6.61 g/m*3 11.5 C 0 km/h
1580 19-06-2010 04:03:05 11.2 C 6.49 g/m*3 11.2 C 0 km/h
1581 19-06-2010 04:15:05 11 C 6.51 g/m*3 11 C 0 km/h
1582 19-06-2010 04:27:05 10.9 C 6.56 g/m*3 10.9 C 0 km/h
1583 19-06-2010 04:39:05 10.7 C 6.58 g/m*3 10.7 C 0 km/h
1584 19-06-2010 04:51:05 10.9 C 6.66 g/m*3 10.9 C 0 km/h
1585 19-06-2010 05:03:05 11 C 6.61 g/m*3 11 C 0 km/h
1586 19-06-2010 05:15:05 11.1 C 6.55 g/m*3 11.1 C 0 km/h
1587 19-06-2010 05:27:06 11.2 C 6.59 g/m*3 11.2 C 0 km/h
1588 19-06-2010 05:39:06 11.2 C 6.59 g/m*3 11.2 C 0 km/h
1589 19-06-2010 05:51:06 11.2 C 6.59 g/m*3 11.2 C 0 km/h
1590 19-06-2010 06:03:06 11.4 C 6.77 g/m*3 11.4 C 0 km/h
1591 19-06-2010 06:15:06 11.4 C 6.77 g/m*3 11.4 C 0 km/h
1592 19-06-2010 06:27:06 11.5 C 6.82 g/m*3 11.5 C 0 km/h
1593 19-06-2010 06:39:06 11.6 C 6.86 g/m*3 11.6 C 0 km/h
1594 19-06-2010 06:51:06 11.6 C 6.86 g/m*3 11.6 C 0 km/h
1595 19-06-2010 07:03:06 11.8 C 6.84 g/m*3 11.8 C 0 km/h
1596 19-06-2010 07:15:06 11.8 C 6.84 g/m*3 11.8 C 0 km/h
1597 19-06-2010 07:27:06 12 C 6.71 g/m*3 12 C 0 km/h
1598 19-06-2010 07:39:06 11.9 C 6.57 g/m*3 11.9 C 0 km/h
1599 19-06-2010 07:51:06 11.8 C 6.53 g/m*3 11.8 C 0 km/h
1600 19-06-2010 08:03:06 12 C 6.5 g/m*3 12 C 0 km/h
Sensor: Nr:Datum:Temp:Abs-Feuchte:Windchill:Wind:
Aussen-T/F 1601 19-06-2010 08:15:03 12 C 6.39 g/m*3 12 C 0 km/h
1602 19-06-2010 08:27:03 12 C 6.5 g/m*3 12 C 0 km/h
1603 19-06-2010 08:39:03 11.9 C 6.46 g/m*3 11.9 C 0 km/h
1604 19-06-2010 08:51:02 11.9 C 6.46 g/m*3 11.9 C 0 km/h
1605 19-06-2010 09:03:02 11.8 C 6.63 g/m*3 11.8 C 0 km/h
1606 19-06-2010 09:15:03 12.1 C 6.97 g/m*3 12.1 C 0 km/h
1607 19-06-2010 09:27:03 12.8 C 6.61 g/m*3 12.8 C 0 km/h
1608 19-06-2010 09:39:02 12.9 C 6.42 g/m*3 12.9 C 0 km/h
1609 19-06-2010 09:51:02 12.8 C 6.38 g/m*3 12.8 C 0 km/h
1610 19-06-2010 10:03:02 12.9 C 6.31 g/m*3 12.9 C 0 km/h
1611 19-06-2010 10:15:02 11.6 C 6.65 g/m*3 11.6 C 0 km/h
1612 19-06-2010 10:27:02 11.8 C 6.95 g/m*3 11.8 C 0 km/h
1613 19-06-2010 10:39:02 12.4 C 6.77 g/m*3 12.4 C 0 km/h
1614 19-06-2010 10:51:02 12.4 C 6.45 g/m*3 12.4 C 0 km/h
1615 19-06-2010 11:03:02 12.9 C 6.31 g/m*3 12.9 C 0 km/h
1616 19-06-2010 11:15:02 13.6 C 6.47 g/m*3 13.6 C 0 km/h
1617 19-06-2010 11:27:02 13.8 C 5.96 g/m*3 13.8 C 0 km/h
1618 19-06-2010 11:39:02 15.8 C 6.19 g/m*3 15.8 C 0 km/h
1619 19-06-2010 11:51:02 17.6 C 6.15 g/m*3 17.6 C 0 km/h
1620 19-06-2010 12:03:02 16.6 C 5.65 g/m*3 16.6 C 0 km/h
1621 19-06-2010 12:15:02 18.1 C 5.41 g/m*3 18.1 C 0 km/h
1622 19-06-2010 12:27:02 16.9 C 5.03 g/m*3 16.9 C 0 km/h
1623 19-06-2010 12:39:01 15.5 C 5.29 g/m*3 15.5 C 0 km/h
1624 19-06-2010 12:51:02 14.3 C 5.41 g/m*3 14.3 C 0 km/h
1625 19-06-2010 13:03:01 13.4 C 6.16 g/m*3 13.4 C 0 km/h
Sensor: Nr:Datum:Temp:Abs-Feuchte:Windchill:Wind:
Aussen-T/F 1626 19-06-2010 13:15:02 15 C 6.28 g/m*3 15 C 0 km/h
1627 19-06-2010 13:27:02 17.3 C 5.89 g/m*3 17.3 C 0 km/h
1628 19-06-2010 13:39:01 20.4 C 5.48 g/m*3 20.4 C 0 km/h
1629 19-06-2010 13:51:02 18.7 C 5.44 g/m*3 18.7 C 0 km/h
1630 19-06-2010 14:03:02 19.3 C 5.31 g/m*3 19.3 C 0 km/h
1631 19-06-2010 14:15:02 19.3 C 4.98 g/m*3 19.3 C 0 km/h
1632 19-06-2010 14:27:02 18.3 C 4.69 g/m*3 18.3 C 0 km/h
1633 19-06-2010 14:39:02 16.8 C 5 g/m*3 16.8 C 0 km/h
1634 19-06-2010 14:51:02 17.6 C 5.1 g/m*3 17.6 C 0 km/h
1635 19-06-2010 15:03:01 18.6 C 4.77 g/m*3 18.6 C 0 km/h
1636 19-06-2010 15:15:01 18.7 C 4.8 g/m*3 18.7 C 0 km/h
1637 19-06-2010 15:27:01 18.7 C 4.96 g/m*3 18.7 C 0 km/h
1638 19-06-2010 15:39:02 17.4 C 4.74 g/m*3 17.4 C 0 km/h
1639 19-06-2010 15:51:02 18.2 C 4.82 g/m*3 18.2 C 0 km/h
1640 19-06-2010 16:03:02 17.9 C 4.73 g/m*3 17.9 C 0 km/h
1641 19-06-2010 16:15:02 17.7 C 5.13 g/m*3 17.7 C 0 km/h
1642 19-06-2010 16:27:02 17.9 C 5.04 g/m*3 17.9 C 0 km/h
1643 19-06-2010 16:39:02 19.9 C 5.33 g/m*3 19.9 C 0 km/h
1644 19-06-2010 16:51:02 20.2 C 4.55 g/m*3 20.2 C 0 km/h
1645 19-06-2010 17:03:02 18.5 C 4.75 g/m*3 18.5 C 0 km/h
1646 19-06-2010 17:15:02 18.2 C 5.13 g/m*3 18.2 C 0 km/h
1647 19-06-2010 17:27:02 18 C 4.92 g/m*3 18 C 0 km/h
1648 19-06-2010 17:39:02 16.8 C 5.15 g/m*3 16.8 C 0 km/h
1649 19-06-2010 17:51:03 16.8 C 5.58 g/m*3 16.8 C 0 km/h
1650 19-06-2010 18:03:03 16.7 C 5.26 g/m*3 16.7 C 0 km/h
Sensor: Nr:Datum:Temp:Abs-Feuchte:Windchill:Wind:
Aussen-T/F 1651 19-06-2010 18:15:02 16.9 C 5.47 g/m*3 16.9 C 0 km/h
1652 19-06-2010 18:27:02 16 C 5.59 g/m*3 16 C 0 km/h
1653 19-06-2010 18:39:02 16.3 C 5.55 g/m*3 16.3 C 0 km/h
1654 19-06-2010 18:51:01 15.8 C 5.52 g/m*3 15.8 C 0 km/h
1655 19-06-2010 19:03:03 17.4 C 5.48 g/m*3 17.4 C 0 km/h
1656 19-06-2010 19:15:01 17.2 C 5.13 g/m*3 17.2 C 0 km/h
1657 19-06-2010 19:27:01 16.6 C 5.09 g/m*3 16.6 C 0 km/h
1658 19-06-2010 19:39:02 16.1 C 5.35 g/m*3 16.1 C 0 km/h
1659 19-06-2010 19:51:03 16.1 C 5.76 g/m*3 16.1 C 0 km/h
1660 19-06-2010 20:03:03 15 C 5.26 g/m*3 15 C 0 km/h
1661 19-06-2010 20:15:02 14.8 C 5.57 g/m*3 14.8 C 0 km/h
1662 19-06-2010 20:27:03 14.8 C 5.83 g/m*3 14.8 C 0 km/h
1663 19-06-2010 20:39:02 14.4 C 5.81 g/m*3 14.4 C 0 km/h
1664 19-06-2010 20:51:01 14.5 C 6.09 g/m*3 14.5 C 0 km/h
1665 19-06-2010 21:03:02 14.5 C 6.09 g/m*3 14.5 C 0 km/h
1666 19-06-2010 21:15:02 14.3 C 6.02 g/m*3 14.3 C 0 km/h
1667 19-06-2010 21:27:02 14.1 C 6.19 g/m*3 14.1 C 0 km/h
1668 19-06-2010 21:39:02 14 C 6.27 g/m*3 14 C 0 km/h
1669 19-06-2010 21:51:02 13.8 C 6.31 g/m*3 13.8 C 0 km/h
1670 19-06-2010 22:03:04 13.6 C 6.24 g/m*3 13.6 C 0 km/h
1671 19-06-2010 22:15:15 13.2 C 6.09 g/m*3 13.2 C 0 km/h
1672 19-06-2010 22:27:15 12.8 C 5.94 g/m*3 12.8 C 0 km/h
1673 19-06-2010 22:39:01 12.6 C 5.97 g/m*3 12.6 C 0 km/h
1674 19-06-2010 22:51:02 12.4 C 6.12 g/m*3 12.4 C 0 km/h
1675 19-06-2010 23:03:01 11.9 C 6.14 g/m*3 11.9 C 0 km/h
Sensor: Nr:Datum:Temp:Abs-Feuchte:Windchill:Wind:
Aussen-T/F 1676 19-06-2010 23:15:02 12.2 C 6.26 g/m*3 12.2 C 0 km/h
1677 19-06-2010 23:27:02 12.4 C 6.23 g/m*3 12.4 C 0 km/h
1678 19-06-2010 23:39:01 12.1 C 6.22 g/m*3 12.1 C 0 km/h
1679 19-06-2010 23:51:02 11.8 C 6.31 g/m*3 11.8 C 0 km/h

Legende:
   Min
   Max


Maximal/Minimal-Werte vom 06.06.2010 - 19.06.2010

Sensor Min Max Avg
Temp
(Aussen-T/F)
10.5 °C
13-06-2010  06:09:05
31.9 °C
06-06-2010  15:27:02
19.12 °C
Abs-Feuchte
(Aussen-T/F)
4.28 g/m*3
16-06-2010  12:36:01
14.76 g/m*3
10-06-2010  10:07:02
8.77 g/m*3
Windchill
(Aussen-T/F)
10.5 C
13-06-2010  06:09:05
31.9 C
06-06-2010  15:27:02
19.11 C

Die Daten stammen von einer Davis Vantage Pro 2 Wetter-Station und werden unter Linux mit der Software wview2wettercgi und aufbereitet. Alle Angaben erfolgen ohne Gewähr für ihre Vollständigkeit oder Richtigkeit.
Kontakt: Rainer Krienke krienke@uni-koblenz.de . Meine Webseiten an der Uni Koblenz oder privat.
Version: $Revision: 0.78 $